<?xml version="1.0" encoding="UTF-8" standalone="no" ?>
<gpx xmlns="http://www.topografix.com/GPX/1/1" xmlns:xsi="http://www.w3.org/2001/XMLSchema-instance" xsi:schemaLocation="http://www.topografix.com/GPX/1/1 http://www.topografix.com/GPX/1/1/gpx.xsd" version="1.1" creator="VisuGPX - https://www.visugpx.com">
  <metadata>
    <name>TAENNCHEL</name>
    <desc><![CDATA[Rando. Taennchel Rorschwihr]]></desc>
  </metadata>
  <trk>
    <name><![CDATA[1111211]]></name>
    <trkseg>
      <trkpt lat="48.2268" lon="7.2314">
        <ele>793</ele>
        <time>2015-06-29T08:21:22Z</time>
      </trkpt>
      <trkpt lat="48.22681" lon="7.2314">
        <ele>747</ele>
        <time>2015-06-29T08:21:51Z</time>
      </trkpt>
      <trkpt lat="48.22686" lon="7.23137">
        <ele>748</ele>
        <time>2015-06-29T08:22:16Z</time>
      </trkpt>
      <trkpt lat="48.22691" lon="7.23133">
        <ele>749</ele>
        <time>2015-06-29T08:22:20Z</time>
      </trkpt>
      <trkpt lat="48.22696" lon="7.23129">
        <ele>751</ele>
        <time>2015-06-29T08:22:25Z</time>
      </trkpt>
      <trkpt lat="48.227" lon="7.23127">
        <ele>752</ele>
        <time>2015-06-29T08:22:30Z</time>
      </trkpt>
      <trkpt lat="48.22705" lon="7.23124">
        <ele>752</ele>
        <time>2015-06-29T08:22:35Z</time>
      </trkpt>
      <trkpt lat="48.22709" lon="7.2312">
        <ele>752</ele>
        <time>2015-06-29T08:22:39Z</time>
      </trkpt>
      <trkpt lat="48.22714" lon="7.23117">
        <ele>751</ele>
        <time>2015-06-29T08:22:42Z</time>
      </trkpt>
      <trkpt lat="48.22718" lon="7.23114">
        <ele>750</ele>
        <time>2015-06-29T08:22:51Z</time>
      </trkpt>
      <trkpt lat="48.22724" lon="7.23113">
        <ele>749</ele>
        <time>2015-06-29T08:22:55Z</time>
      </trkpt>
      <trkpt lat="48.22731" lon="7.23108">
        <ele>748</ele>
        <time>2015-06-29T08:22:58Z</time>
      </trkpt>
      <trkpt lat="48.22736" lon="7.23106">
        <ele>748</ele>
        <time>2015-06-29T08:23:02Z</time>
      </trkpt>
      <trkpt lat="48.22742" lon="7.23107">
        <ele>748</ele>
        <time>2015-06-29T08:23:05Z</time>
      </trkpt>
      <trkpt lat="48.22747" lon="7.23106">
        <ele>747</ele>
        <time>2015-06-29T08:23:09Z</time>
      </trkpt>
      <trkpt lat="48.22752" lon="7.23103">
        <ele>747</ele>
        <time>2015-06-29T08:23:14Z</time>
      </trkpt>
      <trkpt lat="48.22756" lon="7.231">
        <ele>747</ele>
        <time>2015-06-29T08:23:17Z</time>
      </trkpt>
      <trkpt lat="48.22759" lon="7.23094">
        <ele>748</ele>
        <time>2015-06-29T08:23:24Z</time>
      </trkpt>
      <trkpt lat="48.22764" lon="7.23089">
        <ele>749</ele>
        <time>2015-06-29T08:23:28Z</time>
      </trkpt>
      <trkpt lat="48.22769" lon="7.23086">
        <ele>750</ele>
        <time>2015-06-29T08:23:31Z</time>
      </trkpt>
      <trkpt lat="48.22773" lon="7.23082">
        <ele>751</ele>
        <time>2015-06-29T08:23:36Z</time>
      </trkpt>
      <trkpt lat="48.22778" lon="7.2308">
        <ele>752</ele>
        <time>2015-06-29T08:23:41Z</time>
      </trkpt>
      <trkpt lat="48.22782" lon="7.23078">
        <ele>752</ele>
        <time>2015-06-29T08:23:45Z</time>
      </trkpt>
      <trkpt lat="48.22788" lon="7.23076">
        <ele>753</ele>
        <time>2015-06-29T08:23:48Z</time>
      </trkpt>
      <trkpt lat="48.22792" lon="7.23074">
        <ele>753</ele>
        <time>2015-06-29T08:23:53Z</time>
      </trkpt>
      <trkpt lat="48.22797" lon="7.23073">
        <ele>752</ele>
        <time>2015-06-29T08:23:57Z</time>
      </trkpt>
      <trkpt lat="48.22802" lon="7.23071">
        <ele>751</ele>
        <time>2015-06-29T08:24:00Z</time>
      </trkpt>
      <trkpt lat="48.22809" lon="7.23069">
        <ele>751</ele>
        <time>2015-06-29T08:24:05Z</time>
      </trkpt>
      <trkpt lat="48.22813" lon="7.23066">
        <ele>751</ele>
        <time>2015-06-29T08:24:08Z</time>
      </trkpt>
      <trkpt lat="48.22818" lon="7.23064">
        <ele>751</ele>
        <time>2015-06-29T08:24:14Z</time>
      </trkpt>
      <trkpt lat="48.22822" lon="7.23062">
        <ele>752</ele>
        <time>2015-06-29T08:24:20Z</time>
      </trkpt>
      <trkpt lat="48.22827" lon="7.23062">
        <ele>752</ele>
        <time>2015-06-29T08:24:25Z</time>
      </trkpt>
      <trkpt lat="48.22831" lon="7.2306">
        <ele>752</ele>
        <time>2015-06-29T08:24:31Z</time>
      </trkpt>
      <trkpt lat="48.22836" lon="7.23059">
        <ele>752</ele>
        <time>2015-06-29T08:24:34Z</time>
      </trkpt>
      <trkpt lat="48.22841" lon="7.23056">
        <ele>752</ele>
        <time>2015-06-29T08:24:38Z</time>
      </trkpt>
      <trkpt lat="48.22846" lon="7.23055">
        <ele>752</ele>
        <time>2015-06-29T08:24:42Z</time>
      </trkpt>
      <trkpt lat="48.22852" lon="7.23055">
        <ele>752</ele>
        <time>2015-06-29T08:24:46Z</time>
      </trkpt>
      <trkpt lat="48.22857" lon="7.23053">
        <ele>753</ele>
        <time>2015-06-29T08:24:50Z</time>
      </trkpt>
      <trkpt lat="48.22862" lon="7.23053">
        <ele>753</ele>
        <time>2015-06-29T08:24:55Z</time>
      </trkpt>
      <trkpt lat="48.22867" lon="7.23054">
        <ele>753</ele>
        <time>2015-06-29T08:24:58Z</time>
      </trkpt>
      <trkpt lat="48.22872" lon="7.23055">
        <ele>753</ele>
        <time>2015-06-29T08:25:02Z</time>
      </trkpt>
      <trkpt lat="48.22876" lon="7.23057">
        <ele>753</ele>
        <time>2015-06-29T08:25:05Z</time>
      </trkpt>
      <trkpt lat="48.22881" lon="7.23059">
        <ele>753</ele>
        <time>2015-06-29T08:25:09Z</time>
      </trkpt>
      <trkpt lat="48.22886" lon="7.23061">
        <ele>753</ele>
        <time>2015-06-29T08:25:13Z</time>
      </trkpt>
      <trkpt lat="48.22889" lon="7.23067">
        <ele>753</ele>
        <time>2015-06-29T08:25:19Z</time>
      </trkpt>
      <trkpt lat="48.22892" lon="7.23074">
        <ele>754</ele>
        <time>2015-06-29T08:25:26Z</time>
      </trkpt>
      <trkpt lat="48.22894" lon="7.23081">
        <ele>754</ele>
        <time>2015-06-29T08:25:31Z</time>
      </trkpt>
      <trkpt lat="48.22896" lon="7.23087">
        <ele>754</ele>
        <time>2015-06-29T08:25:34Z</time>
      </trkpt>
      <trkpt lat="48.22897" lon="7.23095">
        <ele>754</ele>
        <time>2015-06-29T08:25:38Z</time>
      </trkpt>
      <trkpt lat="48.22896" lon="7.23101">
        <ele>754</ele>
        <time>2015-06-29T08:25:42Z</time>
      </trkpt>
      <trkpt lat="48.22896" lon="7.23109">
        <ele>754</ele>
        <time>2015-06-29T08:25:46Z</time>
      </trkpt>
      <trkpt lat="48.22898" lon="7.23116">
        <ele>754</ele>
        <time>2015-06-29T08:25:51Z</time>
      </trkpt>
      <trkpt lat="48.22898" lon="7.23125">
        <ele>754</ele>
        <time>2015-06-29T08:25:57Z</time>
      </trkpt>
      <trkpt lat="48.22899" lon="7.23132">
        <ele>754</ele>
        <time>2015-06-29T08:26:00Z</time>
      </trkpt>
      <trkpt lat="48.22899" lon="7.2314">
        <ele>754</ele>
        <time>2015-06-29T08:26:06Z</time>
      </trkpt>
      <trkpt lat="48.22899" lon="7.23148">
        <ele>754</ele>
        <time>2015-06-29T08:26:11Z</time>
      </trkpt>
      <trkpt lat="48.22897" lon="7.23156">
        <ele>754</ele>
        <time>2015-06-29T08:26:15Z</time>
      </trkpt>
      <trkpt lat="48.22893" lon="7.2316">
        <ele>754</ele>
        <time>2015-06-29T08:26:25Z</time>
      </trkpt>
      <trkpt lat="48.22891" lon="7.23166">
        <ele>754</ele>
        <time>2015-06-29T08:26:32Z</time>
      </trkpt>
      <trkpt lat="48.22888" lon="7.23177">
        <ele>754</ele>
        <time>2015-06-29T08:26:38Z</time>
      </trkpt>
      <trkpt lat="48.22888" lon="7.23185">
        <ele>753</ele>
        <time>2015-06-29T08:26:42Z</time>
      </trkpt>
      <trkpt lat="48.22891" lon="7.23192">
        <ele>753</ele>
        <time>2015-06-29T08:26:52Z</time>
      </trkpt>
      <trkpt lat="48.22895" lon="7.23194">
        <ele>753</ele>
        <time>2015-06-29T08:27:06Z</time>
      </trkpt>
      <trkpt lat="48.22897" lon="7.23201">
        <ele>751</ele>
        <time>2015-06-29T08:27:16Z</time>
      </trkpt>
      <trkpt lat="48.22899" lon="7.23208">
        <ele>751</ele>
        <time>2015-06-29T08:27:22Z</time>
      </trkpt>
      <trkpt lat="48.22899" lon="7.23216">
        <ele>751</ele>
        <time>2015-06-29T08:27:29Z</time>
      </trkpt>
      <trkpt lat="48.22901" lon="7.23224">
        <ele>751</ele>
        <time>2015-06-29T08:27:33Z</time>
      </trkpt>
      <trkpt lat="48.229" lon="7.23231">
        <ele>751</ele>
        <time>2015-06-29T08:27:39Z</time>
      </trkpt>
      <trkpt lat="48.22902" lon="7.23239">
        <ele>750</ele>
        <time>2015-06-29T08:27:44Z</time>
      </trkpt>
      <trkpt lat="48.22906" lon="7.23245">
        <ele>750</ele>
        <time>2015-06-29T08:27:47Z</time>
      </trkpt>
      <trkpt lat="48.22909" lon="7.2325">
        <ele>750</ele>
        <time>2015-06-29T08:27:51Z</time>
      </trkpt>
      <trkpt lat="48.22914" lon="7.23253">
        <ele>750</ele>
        <time>2015-06-29T08:27:55Z</time>
      </trkpt>
      <trkpt lat="48.22919" lon="7.23256">
        <ele>749</ele>
        <time>2015-06-29T08:27:59Z</time>
      </trkpt>
      <trkpt lat="48.22922" lon="7.23261">
        <ele>750</ele>
        <time>2015-06-29T08:28:04Z</time>
      </trkpt>
      <trkpt lat="48.22926" lon="7.23266">
        <ele>750</ele>
        <time>2015-06-29T08:28:09Z</time>
      </trkpt>
      <trkpt lat="48.22928" lon="7.23273">
        <ele>751</ele>
        <time>2015-06-29T08:28:12Z</time>
      </trkpt>
      <trkpt lat="48.22931" lon="7.23278">
        <ele>751</ele>
        <time>2015-06-29T08:28:16Z</time>
      </trkpt>
      <trkpt lat="48.22933" lon="7.23287">
        <ele>751</ele>
        <time>2015-06-29T08:28:20Z</time>
      </trkpt>
      <trkpt lat="48.22936" lon="7.23294">
        <ele>751</ele>
        <time>2015-06-29T08:28:23Z</time>
      </trkpt>
      <trkpt lat="48.22939" lon="7.233">
        <ele>751</ele>
        <time>2015-06-29T08:28:25Z</time>
      </trkpt>
      <trkpt lat="48.2294" lon="7.23309">
        <ele>750</ele>
        <time>2015-06-29T08:28:28Z</time>
      </trkpt>
      <trkpt lat="48.22942" lon="7.23316">
        <ele>750</ele>
        <time>2015-06-29T08:28:32Z</time>
      </trkpt>
      <trkpt lat="48.22945" lon="7.23322">
        <ele>750</ele>
        <time>2015-06-29T08:28:37Z</time>
      </trkpt>
      <trkpt lat="48.22947" lon="7.23328">
        <ele>749</ele>
        <time>2015-06-29T08:28:42Z</time>
      </trkpt>
      <trkpt lat="48.22946" lon="7.23336">
        <ele>748</ele>
        <time>2015-06-29T08:28:46Z</time>
      </trkpt>
      <trkpt lat="48.22944" lon="7.23344">
        <ele>748</ele>
        <time>2015-06-29T08:28:49Z</time>
      </trkpt>
      <trkpt lat="48.22942" lon="7.2335">
        <ele>747</ele>
        <time>2015-06-29T08:28:52Z</time>
      </trkpt>
      <trkpt lat="48.22941" lon="7.23358">
        <ele>747</ele>
        <time>2015-06-29T08:28:57Z</time>
      </trkpt>
      <trkpt lat="48.22942" lon="7.23367">
        <ele>747</ele>
        <time>2015-06-29T08:29:00Z</time>
      </trkpt>
      <trkpt lat="48.2294" lon="7.23376">
        <ele>746</ele>
        <time>2015-06-29T08:29:04Z</time>
      </trkpt>
      <trkpt lat="48.22936" lon="7.2338">
        <ele>746</ele>
        <time>2015-06-29T08:29:07Z</time>
      </trkpt>
      <trkpt lat="48.22931" lon="7.23384">
        <ele>746</ele>
        <time>2015-06-29T08:29:11Z</time>
      </trkpt>
      <trkpt lat="48.22928" lon="7.23389">
        <ele>746</ele>
        <time>2015-06-29T08:29:14Z</time>
      </trkpt>
      <trkpt lat="48.22923" lon="7.23393">
        <ele>747</ele>
        <time>2015-06-29T08:29:19Z</time>
      </trkpt>
      <trkpt lat="48.22919" lon="7.23398">
        <ele>747</ele>
        <time>2015-06-29T08:29:23Z</time>
      </trkpt>
      <trkpt lat="48.22916" lon="7.23404">
        <ele>748</ele>
        <time>2015-06-29T08:29:28Z</time>
      </trkpt>
      <trkpt lat="48.22913" lon="7.23409">
        <ele>748</ele>
        <time>2015-06-29T08:29:33Z</time>
      </trkpt>
      <trkpt lat="48.22908" lon="7.23413">
        <ele>749</ele>
        <time>2015-06-29T08:29:37Z</time>
      </trkpt>
      <trkpt lat="48.22903" lon="7.23414">
        <ele>751</ele>
        <time>2015-06-29T08:29:42Z</time>
      </trkpt>
      <trkpt lat="48.22898" lon="7.23417">
        <ele>751</ele>
        <time>2015-06-29T08:29:47Z</time>
      </trkpt>
      <trkpt lat="48.22895" lon="7.23423">
        <ele>752</ele>
        <time>2015-06-29T08:29:51Z</time>
      </trkpt>
      <trkpt lat="48.22894" lon="7.23432">
        <ele>753</ele>
        <time>2015-06-29T08:29:55Z</time>
      </trkpt>
      <trkpt lat="48.22893" lon="7.2344">
        <ele>753</ele>
        <time>2015-06-29T08:29:58Z</time>
      </trkpt>
      <trkpt lat="48.22894" lon="7.23447">
        <ele>754</ele>
        <time>2015-06-29T08:30:04Z</time>
      </trkpt>
      <trkpt lat="48.22895" lon="7.23455">
        <ele>754</ele>
        <time>2015-06-29T08:30:13Z</time>
      </trkpt>
      <trkpt lat="48.229" lon="7.23471">
        <ele>754</ele>
        <time>2015-06-29T08:30:18Z</time>
      </trkpt>
      <trkpt lat="48.22902" lon="7.23478">
        <ele>754</ele>
        <time>2015-06-29T08:30:20Z</time>
      </trkpt>
      <trkpt lat="48.22905" lon="7.23484">
        <ele>754</ele>
        <time>2015-06-29T08:30:22Z</time>
      </trkpt>
      <trkpt lat="48.22908" lon="7.2349">
        <ele>753</ele>
        <time>2015-06-29T08:30:27Z</time>
      </trkpt>
      <trkpt lat="48.2291" lon="7.23495">
        <ele>752</ele>
        <time>2015-06-29T08:30:41Z</time>
      </trkpt>
      <trkpt lat="48.22908" lon="7.23501">
        <ele>751</ele>
        <time>2015-06-29T08:30:54Z</time>
      </trkpt>
      <trkpt lat="48.22911" lon="7.23505">
        <ele>749</ele>
        <time>2015-06-29T08:31:20Z</time>
      </trkpt>
      <trkpt lat="48.22913" lon="7.23503">
        <ele>752</ele>
        <time>2015-06-29T08:31:48Z</time>
      </trkpt>
      <trkpt lat="48.22918" lon="7.23501">
        <ele>752</ele>
        <time>2015-06-29T08:31:53Z</time>
      </trkpt>
      <trkpt lat="48.22923" lon="7.23501">
        <ele>752</ele>
        <time>2015-06-29T08:31:57Z</time>
      </trkpt>
      <trkpt lat="48.22928" lon="7.23499">
        <ele>752</ele>
        <time>2015-06-29T08:32:01Z</time>
      </trkpt>
      <trkpt lat="48.22933" lon="7.23498">
        <ele>753</ele>
        <time>2015-06-29T08:32:06Z</time>
      </trkpt>
      <trkpt lat="48.22938" lon="7.23495">
        <ele>754</ele>
        <time>2015-06-29T08:32:10Z</time>
      </trkpt>
      <trkpt lat="48.22942" lon="7.23492">
        <ele>754</ele>
        <time>2015-06-29T08:32:12Z</time>
      </trkpt>
      <trkpt lat="48.22947" lon="7.23488">
        <ele>754</ele>
        <time>2015-06-29T08:32:15Z</time>
      </trkpt>
      <trkpt lat="48.2295" lon="7.23484">
        <ele>753</ele>
        <time>2015-06-29T08:32:19Z</time>
      </trkpt>
      <trkpt lat="48.22955" lon="7.23483">
        <ele>753</ele>
        <time>2015-06-29T08:32:23Z</time>
      </trkpt>
      <trkpt lat="48.2296" lon="7.23481">
        <ele>753</ele>
        <time>2015-06-29T08:32:27Z</time>
      </trkpt>
      <trkpt lat="48.22964" lon="7.23478">
        <ele>753</ele>
        <time>2015-06-29T08:32:33Z</time>
      </trkpt>
      <trkpt lat="48.22969" lon="7.23479">
        <ele>752</ele>
        <time>2015-06-29T08:32:36Z</time>
      </trkpt>
      <trkpt lat="48.22974" lon="7.23479">
        <ele>752</ele>
        <time>2015-06-29T08:32:39Z</time>
      </trkpt>
      <trkpt lat="48.22979" lon="7.2348">
        <ele>751</ele>
        <time>2015-06-29T08:32:43Z</time>
      </trkpt>
      <trkpt lat="48.22984" lon="7.23478">
        <ele>751</ele>
        <time>2015-06-29T08:32:48Z</time>
      </trkpt>
      <trkpt lat="48.22989" lon="7.23479">
        <ele>750</ele>
        <time>2015-06-29T08:32:52Z</time>
      </trkpt>
      <trkpt lat="48.22994" lon="7.23478">
        <ele>750</ele>
        <time>2015-06-29T08:32:58Z</time>
      </trkpt>
      <trkpt lat="48.22998" lon="7.2348">
        <ele>750</ele>
        <time>2015-06-29T08:33:03Z</time>
      </trkpt>
      <trkpt lat="48.23003" lon="7.23479">
        <ele>750</ele>
        <time>2015-06-29T08:33:07Z</time>
      </trkpt>
      <trkpt lat="48.23008" lon="7.23479">
        <ele>750</ele>
        <time>2015-06-29T08:33:10Z</time>
      </trkpt>
      <trkpt lat="48.23013" lon="7.23478">
        <ele>749</ele>
        <time>2015-06-29T08:33:14Z</time>
      </trkpt>
      <trkpt lat="48.23018" lon="7.23477">
        <ele>749</ele>
        <time>2015-06-29T08:33:18Z</time>
      </trkpt>
      <trkpt lat="48.23022" lon="7.23477">
        <ele>748</ele>
        <time>2015-06-29T08:33:26Z</time>
      </trkpt>
      <trkpt lat="48.23027" lon="7.23477">
        <ele>748</ele>
        <time>2015-06-29T08:33:30Z</time>
      </trkpt>
      <trkpt lat="48.23033" lon="7.23477">
        <ele>748</ele>
        <time>2015-06-29T08:33:34Z</time>
      </trkpt>
      <trkpt lat="48.23038" lon="7.23477">
        <ele>748</ele>
        <time>2015-06-29T08:33:39Z</time>
      </trkpt>
      <trkpt lat="48.23043" lon="7.23478">
        <ele>748</ele>
        <time>2015-06-29T08:33:44Z</time>
      </trkpt>
      <trkpt lat="48.23048" lon="7.2348">
        <ele>749</ele>
        <time>2015-06-29T08:33:48Z</time>
      </trkpt>
      <trkpt lat="48.23053" lon="7.23481">
        <ele>750</ele>
        <time>2015-06-29T08:33:52Z</time>
      </trkpt>
      <trkpt lat="48.23057" lon="7.2348">
        <ele>750</ele>
        <time>2015-06-29T08:33:58Z</time>
      </trkpt>
      <trkpt lat="48.23062" lon="7.23478">
        <ele>750</ele>
        <time>2015-06-29T08:34:05Z</time>
      </trkpt>
      <trkpt lat="48.23066" lon="7.23476">
        <ele>750</ele>
        <time>2015-06-29T08:34:11Z</time>
      </trkpt>
      <trkpt lat="48.23071" lon="7.23475">
        <ele>749</ele>
        <time>2015-06-29T08:34:15Z</time>
      </trkpt>
      <trkpt lat="48.23077" lon="7.23476">
        <ele>749</ele>
        <time>2015-06-29T08:34:18Z</time>
      </trkpt>
      <trkpt lat="48.23082" lon="7.23474">
        <ele>749</ele>
        <time>2015-06-29T08:34:23Z</time>
      </trkpt>
      <trkpt lat="48.23086" lon="7.23472">
        <ele>748</ele>
        <time>2015-06-29T08:34:30Z</time>
      </trkpt>
      <trkpt lat="48.23092" lon="7.23472">
        <ele>748</ele>
        <time>2015-06-29T08:34:35Z</time>
      </trkpt>
      <trkpt lat="48.23098" lon="7.23468">
        <ele>747</ele>
        <time>2015-06-29T08:34:39Z</time>
      </trkpt>
      <trkpt lat="48.23103" lon="7.23468">
        <ele>747</ele>
        <time>2015-06-29T08:34:43Z</time>
      </trkpt>
      <trkpt lat="48.23108" lon="7.23466">
        <ele>747</ele>
        <time>2015-06-29T08:34:47Z</time>
      </trkpt>
      <trkpt lat="48.23114" lon="7.23465">
        <ele>748</ele>
        <time>2015-06-29T08:34:53Z</time>
      </trkpt>
      <trkpt lat="48.23119" lon="7.23464">
        <ele>748</ele>
        <time>2015-06-29T08:34:59Z</time>
      </trkpt>
      <trkpt lat="48.23124" lon="7.23464">
        <ele>748</ele>
        <time>2015-06-29T08:35:04Z</time>
      </trkpt>
      <trkpt lat="48.2313" lon="7.23466">
        <ele>748</ele>
        <time>2015-06-29T08:35:17Z</time>
      </trkpt>
      <trkpt lat="48.23136" lon="7.23467">
        <ele>748</ele>
        <time>2015-06-29T08:35:19Z</time>
      </trkpt>
      <trkpt lat="48.23142" lon="7.23466">
        <ele>748</ele>
        <time>2015-06-29T08:35:23Z</time>
      </trkpt>
      <trkpt lat="48.23146" lon="7.23464">
        <ele>748</ele>
        <time>2015-06-29T08:35:27Z</time>
      </trkpt>
      <trkpt lat="48.23151" lon="7.23463">
        <ele>748</ele>
        <time>2015-06-29T08:35:33Z</time>
      </trkpt>
      <trkpt lat="48.23156" lon="7.23461">
        <ele>748</ele>
        <time>2015-06-29T08:35:41Z</time>
      </trkpt>
      <trkpt lat="48.23161" lon="7.23461">
        <ele>748</ele>
        <time>2015-06-29T08:35:45Z</time>
      </trkpt>
      <trkpt lat="48.23166" lon="7.23459">
        <ele>748</ele>
        <time>2015-06-29T08:35:48Z</time>
      </trkpt>
      <trkpt lat="48.23172" lon="7.23462">
        <ele>748</ele>
        <time>2015-06-29T08:35:54Z</time>
      </trkpt>
      <trkpt lat="48.23177" lon="7.23462">
        <ele>748</ele>
        <time>2015-06-29T08:35:57Z</time>
      </trkpt>
      <trkpt lat="48.23181" lon="7.23461">
        <ele>747</ele>
        <time>2015-06-29T08:36:00Z</time>
      </trkpt>
      <trkpt lat="48.23186" lon="7.23463">
        <ele>747</ele>
        <time>2015-06-29T08:36:04Z</time>
      </trkpt>
      <trkpt lat="48.23191" lon="7.23461">
        <ele>746</ele>
        <time>2015-06-29T08:36:08Z</time>
      </trkpt>
      <trkpt lat="48.23197" lon="7.23463">
        <ele>746</ele>
        <time>2015-06-29T08:36:15Z</time>
      </trkpt>
      <trkpt lat="48.23201" lon="7.23465">
        <ele>746</ele>
        <time>2015-06-29T08:36:17Z</time>
      </trkpt>
      <trkpt lat="48.23206" lon="7.23467">
        <ele>747</ele>
        <time>2015-06-29T08:36:22Z</time>
      </trkpt>
      <trkpt lat="48.23211" lon="7.23467">
        <ele>747</ele>
        <time>2015-06-29T08:36:27Z</time>
      </trkpt>
      <trkpt lat="48.23218" lon="7.23465">
        <ele>747</ele>
        <time>2015-06-29T08:36:31Z</time>
      </trkpt>
      <trkpt lat="48.23224" lon="7.23462">
        <ele>748</ele>
        <time>2015-06-29T08:36:36Z</time>
      </trkpt>
      <trkpt lat="48.23228" lon="7.2346">
        <ele>749</ele>
        <time>2015-06-29T08:36:42Z</time>
      </trkpt>
      <trkpt lat="48.23234" lon="7.2346">
        <ele>750</ele>
        <time>2015-06-29T08:36:47Z</time>
      </trkpt>
      <trkpt lat="48.23238" lon="7.23463">
        <ele>750</ele>
        <time>2015-06-29T08:36:51Z</time>
      </trkpt>
      <trkpt lat="48.23243" lon="7.23467">
        <ele>751</ele>
        <time>2015-06-29T08:36:55Z</time>
      </trkpt>
      <trkpt lat="48.23246" lon="7.23471">
        <ele>751</ele>
        <time>2015-06-29T08:36:59Z</time>
      </trkpt>
      <trkpt lat="48.23251" lon="7.23474">
        <ele>751</ele>
        <time>2015-06-29T08:37:04Z</time>
      </trkpt>
      <trkpt lat="48.23256" lon="7.23473">
        <ele>752</ele>
        <time>2015-06-29T08:37:16Z</time>
      </trkpt>
      <trkpt lat="48.23261" lon="7.23471">
        <ele>752</ele>
        <time>2015-06-29T08:37:22Z</time>
      </trkpt>
      <trkpt lat="48.23265" lon="7.23472">
        <ele>752</ele>
        <time>2015-06-29T08:37:27Z</time>
      </trkpt>
      <trkpt lat="48.2327" lon="7.23475">
        <ele>753</ele>
        <time>2015-06-29T08:37:30Z</time>
      </trkpt>
      <trkpt lat="48.23275" lon="7.23476">
        <ele>753</ele>
        <time>2015-06-29T08:37:36Z</time>
      </trkpt>
      <trkpt lat="48.2328" lon="7.23479">
        <ele>753</ele>
        <time>2015-06-29T08:37:41Z</time>
      </trkpt>
      <trkpt lat="48.23284" lon="7.23481">
        <ele>754</ele>
        <time>2015-06-29T08:37:45Z</time>
      </trkpt>
      <trkpt lat="48.23288" lon="7.23485">
        <ele>754</ele>
        <time>2015-06-29T08:37:49Z</time>
      </trkpt>
      <trkpt lat="48.23293" lon="7.23486">
        <ele>755</ele>
        <time>2015-06-29T08:37:55Z</time>
      </trkpt>
      <trkpt lat="48.23298" lon="7.23488">
        <ele>755</ele>
        <time>2015-06-29T08:38:01Z</time>
      </trkpt>
      <trkpt lat="48.23304" lon="7.23493">
        <ele>755</ele>
        <time>2015-06-29T08:38:06Z</time>
      </trkpt>
      <trkpt lat="48.23309" lon="7.23497">
        <ele>754</ele>
        <time>2015-06-29T08:38:10Z</time>
      </trkpt>
      <trkpt lat="48.23312" lon="7.23503">
        <ele>754</ele>
        <time>2015-06-29T08:38:14Z</time>
      </trkpt>
      <trkpt lat="48.23312" lon="7.23509">
        <ele>754</ele>
        <time>2015-06-29T08:38:28Z</time>
      </trkpt>
      <trkpt lat="48.23317" lon="7.23515">
        <ele>754</ele>
        <time>2015-06-29T08:38:32Z</time>
      </trkpt>
      <trkpt lat="48.23321" lon="7.2352">
        <ele>754</ele>
        <time>2015-06-29T08:38:35Z</time>
      </trkpt>
      <trkpt lat="48.23325" lon="7.23524">
        <ele>753</ele>
        <time>2015-06-29T08:38:42Z</time>
      </trkpt>
      <trkpt lat="48.23327" lon="7.2353">
        <ele>753</ele>
        <time>2015-06-29T08:38:47Z</time>
      </trkpt>
      <trkpt lat="48.23331" lon="7.23536">
        <ele>753</ele>
        <time>2015-06-29T08:38:54Z</time>
      </trkpt>
      <trkpt lat="48.23334" lon="7.23541">
        <ele>754</ele>
        <time>2015-06-29T08:39:00Z</time>
      </trkpt>
      <trkpt lat="48.23337" lon="7.23548">
        <ele>753</ele>
        <time>2015-06-29T08:39:10Z</time>
      </trkpt>
      <trkpt lat="48.2334" lon="7.23555">
        <ele>753</ele>
        <time>2015-06-29T08:39:15Z</time>
      </trkpt>
      <trkpt lat="48.23339" lon="7.23562">
        <ele>753</ele>
        <time>2015-06-29T08:39:21Z</time>
      </trkpt>
      <trkpt lat="48.2334" lon="7.2357">
        <ele>754</ele>
        <time>2015-06-29T08:39:25Z</time>
      </trkpt>
      <trkpt lat="48.2334" lon="7.23577">
        <ele>754</ele>
        <time>2015-06-29T08:39:29Z</time>
      </trkpt>
      <trkpt lat="48.23339" lon="7.23585">
        <ele>755</ele>
        <time>2015-06-29T08:39:34Z</time>
      </trkpt>
      <trkpt lat="48.23339" lon="7.23592">
        <ele>755</ele>
        <time>2015-06-29T08:39:39Z</time>
      </trkpt>
      <trkpt lat="48.2334" lon="7.23599">
        <ele>756</ele>
        <time>2015-06-29T08:39:43Z</time>
      </trkpt>
      <trkpt lat="48.23339" lon="7.23606">
        <ele>756</ele>
        <time>2015-06-29T08:39:48Z</time>
      </trkpt>
      <trkpt lat="48.23339" lon="7.23614">
        <ele>757</ele>
        <time>2015-06-29T08:39:53Z</time>
      </trkpt>
      <trkpt lat="48.23341" lon="7.2362">
        <ele>757</ele>
        <time>2015-06-29T08:39:56Z</time>
      </trkpt>
      <trkpt lat="48.23343" lon="7.23626">
        <ele>757</ele>
        <time>2015-06-29T08:40:00Z</time>
      </trkpt>
      <trkpt lat="48.23348" lon="7.23632">
        <ele>758</ele>
        <time>2015-06-29T08:40:04Z</time>
      </trkpt>
      <trkpt lat="48.23349" lon="7.23639">
        <ele>758</ele>
        <time>2015-06-29T08:40:08Z</time>
      </trkpt>
      <trkpt lat="48.2335" lon="7.23647">
        <ele>759</ele>
        <time>2015-06-29T08:40:12Z</time>
      </trkpt>
      <trkpt lat="48.23349" lon="7.23655">
        <ele>759</ele>
        <time>2015-06-29T08:40:17Z</time>
      </trkpt>
      <trkpt lat="48.23349" lon="7.23663">
        <ele>759</ele>
        <time>2015-06-29T08:40:21Z</time>
      </trkpt>
      <trkpt lat="48.23349" lon="7.2367">
        <ele>759</ele>
        <time>2015-06-29T08:40:30Z</time>
      </trkpt>
      <trkpt lat="48.23352" lon="7.23679">
        <ele>759</ele>
        <time>2015-06-29T08:40:33Z</time>
      </trkpt>
      <trkpt lat="48.23355" lon="7.23685">
        <ele>759</ele>
        <time>2015-06-29T08:40:37Z</time>
      </trkpt>
      <trkpt lat="48.23357" lon="7.23692">
        <ele>760</ele>
        <time>2015-06-29T08:40:44Z</time>
      </trkpt>
      <trkpt lat="48.2336" lon="7.23697">
        <ele>760</ele>
        <time>2015-06-29T08:40:49Z</time>
      </trkpt>
      <trkpt lat="48.23363" lon="7.23703">
        <ele>760</ele>
        <time>2015-06-29T08:40:53Z</time>
      </trkpt>
      <trkpt lat="48.23364" lon="7.23709">
        <ele>761</ele>
        <time>2015-06-29T08:40:58Z</time>
      </trkpt>
      <trkpt lat="48.23364" lon="7.23717">
        <ele>761</ele>
        <time>2015-06-29T08:41:03Z</time>
      </trkpt>
      <trkpt lat="48.23362" lon="7.23725">
        <ele>762</ele>
        <time>2015-06-29T08:41:07Z</time>
      </trkpt>
      <trkpt lat="48.23362" lon="7.23732">
        <ele>762</ele>
        <time>2015-06-29T08:41:13Z</time>
      </trkpt>
      <trkpt lat="48.23361" lon="7.2374">
        <ele>763</ele>
        <time>2015-06-29T08:41:17Z</time>
      </trkpt>
      <trkpt lat="48.23362" lon="7.23747">
        <ele>762</ele>
        <time>2015-06-29T08:41:22Z</time>
      </trkpt>
      <trkpt lat="48.2336" lon="7.23754">
        <ele>763</ele>
        <time>2015-06-29T08:41:28Z</time>
      </trkpt>
      <trkpt lat="48.23361" lon="7.23762">
        <ele>763</ele>
        <time>2015-06-29T08:41:32Z</time>
      </trkpt>
      <trkpt lat="48.23363" lon="7.2377">
        <ele>763</ele>
        <time>2015-06-29T08:41:36Z</time>
      </trkpt>
      <trkpt lat="48.23362" lon="7.23777">
        <ele>764</ele>
        <time>2015-06-29T08:41:40Z</time>
      </trkpt>
      <trkpt lat="48.2336" lon="7.23784">
        <ele>764</ele>
        <time>2015-06-29T08:41:44Z</time>
      </trkpt>
      <trkpt lat="48.23358" lon="7.2379">
        <ele>765</ele>
        <time>2015-06-29T08:41:48Z</time>
      </trkpt>
      <trkpt lat="48.23356" lon="7.23797">
        <ele>766</ele>
        <time>2015-06-29T08:41:55Z</time>
      </trkpt>
      <trkpt lat="48.23354" lon="7.23804">
        <ele>767</ele>
        <time>2015-06-29T08:42:02Z</time>
      </trkpt>
      <trkpt lat="48.23352" lon="7.23812">
        <ele>767</ele>
        <time>2015-06-29T08:42:08Z</time>
      </trkpt>
      <trkpt lat="48.2335" lon="7.23818">
        <ele>768</ele>
        <time>2015-06-29T08:42:13Z</time>
      </trkpt>
      <trkpt lat="48.23348" lon="7.23825">
        <ele>768</ele>
        <time>2015-06-29T08:42:18Z</time>
      </trkpt>
      <trkpt lat="48.23346" lon="7.23832">
        <ele>769</ele>
        <time>2015-06-29T08:42:21Z</time>
      </trkpt>
      <trkpt lat="48.23345" lon="7.23839">
        <ele>769</ele>
        <time>2015-06-29T08:42:29Z</time>
      </trkpt>
      <trkpt lat="48.23346" lon="7.23848">
        <ele>769</ele>
        <time>2015-06-29T08:42:34Z</time>
      </trkpt>
      <trkpt lat="48.23346" lon="7.23857">
        <ele>769</ele>
        <time>2015-06-29T08:42:39Z</time>
      </trkpt>
      <trkpt lat="48.23346" lon="7.23865">
        <ele>770</ele>
        <time>2015-06-29T08:42:43Z</time>
      </trkpt>
      <trkpt lat="48.23346" lon="7.23874">
        <ele>771</ele>
        <time>2015-06-29T08:42:49Z</time>
      </trkpt>
      <trkpt lat="48.23344" lon="7.2388">
        <ele>772</ele>
        <time>2015-06-29T08:42:53Z</time>
      </trkpt>
      <trkpt lat="48.23344" lon="7.23887">
        <ele>772</ele>
        <time>2015-06-29T08:42:58Z</time>
      </trkpt>
      <trkpt lat="48.23345" lon="7.23894">
        <ele>773</ele>
        <time>2015-06-29T08:43:06Z</time>
      </trkpt>
      <trkpt lat="48.23345" lon="7.23901">
        <ele>775</ele>
        <time>2015-06-29T08:43:11Z</time>
      </trkpt>
      <trkpt lat="48.23346" lon="7.23908">
        <ele>775</ele>
        <time>2015-06-29T08:43:14Z</time>
      </trkpt>
      <trkpt lat="48.23347" lon="7.23915">
        <ele>775</ele>
        <time>2015-06-29T08:43:21Z</time>
      </trkpt>
      <trkpt lat="48.23347" lon="7.23922">
        <ele>776</ele>
        <time>2015-06-29T08:43:25Z</time>
      </trkpt>
      <trkpt lat="48.23346" lon="7.2393">
        <ele>777</ele>
        <time>2015-06-29T08:43:29Z</time>
      </trkpt>
      <trkpt lat="48.23345" lon="7.23937">
        <ele>777</ele>
        <time>2015-06-29T08:43:33Z</time>
      </trkpt>
      <trkpt lat="48.23344" lon="7.23944">
        <ele>778</ele>
        <time>2015-06-29T08:43:40Z</time>
      </trkpt>
      <trkpt lat="48.23344" lon="7.23951">
        <ele>778</ele>
        <time>2015-06-29T08:43:46Z</time>
      </trkpt>
      <trkpt lat="48.23341" lon="7.23958">
        <ele>779</ele>
        <time>2015-06-29T08:43:53Z</time>
      </trkpt>
      <trkpt lat="48.2334" lon="7.23965">
        <ele>780</ele>
        <time>2015-06-29T08:44:02Z</time>
      </trkpt>
      <trkpt lat="48.23338" lon="7.23972">
        <ele>781</ele>
        <time>2015-06-29T08:44:09Z</time>
      </trkpt>
      <trkpt lat="48.23333" lon="7.23978">
        <ele>781</ele>
        <time>2015-06-29T08:44:13Z</time>
      </trkpt>
      <trkpt lat="48.23331" lon="7.23984">
        <ele>782</ele>
        <time>2015-06-29T08:44:20Z</time>
      </trkpt>
      <trkpt lat="48.23332" lon="7.23991">
        <ele>782</ele>
        <time>2015-06-29T08:44:33Z</time>
      </trkpt>
      <trkpt lat="48.23333" lon="7.23999">
        <ele>782</ele>
        <time>2015-06-29T08:44:39Z</time>
      </trkpt>
      <trkpt lat="48.23335" lon="7.24006">
        <ele>782</ele>
        <time>2015-06-29T08:44:46Z</time>
      </trkpt>
      <trkpt lat="48.23333" lon="7.24012">
        <ele>782</ele>
        <time>2015-06-29T08:44:53Z</time>
      </trkpt>
      <trkpt lat="48.23332" lon="7.24022">
        <ele>783</ele>
        <time>2015-06-29T08:44:59Z</time>
      </trkpt>
      <trkpt lat="48.23332" lon="7.24029">
        <ele>784</ele>
        <time>2015-06-29T08:45:03Z</time>
      </trkpt>
      <trkpt lat="48.23332" lon="7.24037">
        <ele>785</ele>
        <time>2015-06-29T08:45:09Z</time>
      </trkpt>
      <trkpt lat="48.23331" lon="7.24044">
        <ele>785</ele>
        <time>2015-06-29T08:45:13Z</time>
      </trkpt>
      <trkpt lat="48.2333" lon="7.24051">
        <ele>786</ele>
        <time>2015-06-29T08:45:19Z</time>
      </trkpt>
      <trkpt lat="48.23327" lon="7.24059">
        <ele>788</ele>
        <time>2015-06-29T08:45:27Z</time>
      </trkpt>
      <trkpt lat="48.23327" lon="7.24066">
        <ele>788</ele>
        <time>2015-06-29T08:45:32Z</time>
      </trkpt>
      <trkpt lat="48.23326" lon="7.24073">
        <ele>789</ele>
        <time>2015-06-29T08:45:38Z</time>
      </trkpt>
      <trkpt lat="48.23325" lon="7.24081">
        <ele>789</ele>
        <time>2015-06-29T08:45:41Z</time>
      </trkpt>
      <trkpt lat="48.23323" lon="7.24089">
        <ele>789</ele>
        <time>2015-06-29T08:45:45Z</time>
      </trkpt>
      <trkpt lat="48.23322" lon="7.24096">
        <ele>788</ele>
        <time>2015-06-29T08:45:49Z</time>
      </trkpt>
      <trkpt lat="48.23322" lon="7.24103">
        <ele>788</ele>
        <time>2015-06-29T08:45:54Z</time>
      </trkpt>
      <trkpt lat="48.23324" lon="7.2411">
        <ele>787</ele>
        <time>2015-06-29T08:45:59Z</time>
      </trkpt>
      <trkpt lat="48.23323" lon="7.24117">
        <ele>788</ele>
        <time>2015-06-29T08:46:08Z</time>
      </trkpt>
      <trkpt lat="48.23326" lon="7.24123">
        <ele>789</ele>
        <time>2015-06-29T08:46:18Z</time>
      </trkpt>
      <trkpt lat="48.23325" lon="7.2413">
        <ele>789</ele>
        <time>2015-06-29T08:46:24Z</time>
      </trkpt>
      <trkpt lat="48.23324" lon="7.2414">
        <ele>790</ele>
        <time>2015-06-29T08:46:27Z</time>
      </trkpt>
      <trkpt lat="48.23325" lon="7.24151">
        <ele>790</ele>
        <time>2015-06-29T08:46:29Z</time>
      </trkpt>
      <trkpt lat="48.23328" lon="7.24158">
        <ele>790</ele>
        <time>2015-06-29T08:46:31Z</time>
      </trkpt>
      <trkpt lat="48.23329" lon="7.24165">
        <ele>790</ele>
        <time>2015-06-29T08:46:36Z</time>
      </trkpt>
      <trkpt lat="48.23331" lon="7.24172">
        <ele>791</ele>
        <time>2015-06-29T08:46:41Z</time>
      </trkpt>
      <trkpt lat="48.23334" lon="7.24178">
        <ele>791</ele>
        <time>2015-06-29T08:46:45Z</time>
      </trkpt>
      <trkpt lat="48.23338" lon="7.24185">
        <ele>791</ele>
        <time>2015-06-29T08:46:53Z</time>
      </trkpt>
      <trkpt lat="48.2334" lon="7.24191">
        <ele>791</ele>
        <time>2015-06-29T08:46:58Z</time>
      </trkpt>
      <trkpt lat="48.2334" lon="7.24199">
        <ele>792</ele>
        <time>2015-06-29T08:47:04Z</time>
      </trkpt>
      <trkpt lat="48.23342" lon="7.24206">
        <ele>791</ele>
        <time>2015-06-29T08:47:11Z</time>
      </trkpt>
      <trkpt lat="48.23344" lon="7.24213">
        <ele>792</ele>
        <time>2015-06-29T08:47:15Z</time>
      </trkpt>
      <trkpt lat="48.23347" lon="7.24219">
        <ele>792</ele>
        <time>2015-06-29T08:47:24Z</time>
      </trkpt>
      <trkpt lat="48.2335" lon="7.24223">
        <ele>792</ele>
        <time>2015-06-29T08:47:29Z</time>
      </trkpt>
      <trkpt lat="48.23356" lon="7.24228">
        <ele>793</ele>
        <time>2015-06-29T08:47:32Z</time>
      </trkpt>
      <trkpt lat="48.23357" lon="7.24234">
        <ele>793</ele>
        <time>2015-06-29T08:47:36Z</time>
      </trkpt>
      <trkpt lat="48.23359" lon="7.2424">
        <ele>794</ele>
        <time>2015-06-29T08:47:42Z</time>
      </trkpt>
      <trkpt lat="48.23362" lon="7.24247">
        <ele>795</ele>
        <time>2015-06-29T08:47:47Z</time>
      </trkpt>
      <trkpt lat="48.23364" lon="7.24254">
        <ele>796</ele>
        <time>2015-06-29T08:47:52Z</time>
      </trkpt>
      <trkpt lat="48.23365" lon="7.24261">
        <ele>797</ele>
        <time>2015-06-29T08:48:00Z</time>
      </trkpt>
      <trkpt lat="48.23365" lon="7.2427">
        <ele>797</ele>
        <time>2015-06-29T08:48:04Z</time>
      </trkpt>
      <trkpt lat="48.23364" lon="7.24278">
        <ele>798</ele>
        <time>2015-06-29T08:48:08Z</time>
      </trkpt>
      <trkpt lat="48.23366" lon="7.24286">
        <ele>798</ele>
        <time>2015-06-29T08:48:11Z</time>
      </trkpt>
      <trkpt lat="48.23368" lon="7.24292">
        <ele>799</ele>
        <time>2015-06-29T08:48:16Z</time>
      </trkpt>
      <trkpt lat="48.23369" lon="7.243">
        <ele>800</ele>
        <time>2015-06-29T08:48:24Z</time>
      </trkpt>
      <trkpt lat="48.2337" lon="7.24309">
        <ele>801</ele>
        <time>2015-06-29T08:48:28Z</time>
      </trkpt>
      <trkpt lat="48.23372" lon="7.24316">
        <ele>802</ele>
        <time>2015-06-29T08:48:39Z</time>
      </trkpt>
      <trkpt lat="48.23377" lon="7.24318">
        <ele>804</ele>
        <time>2015-06-29T08:48:47Z</time>
      </trkpt>
      <trkpt lat="48.23378" lon="7.24325">
        <ele>805</ele>
        <time>2015-06-29T08:48:51Z</time>
      </trkpt>
      <trkpt lat="48.23379" lon="7.24331">
        <ele>805</ele>
        <time>2015-06-29T08:48:56Z</time>
      </trkpt>
      <trkpt lat="48.23381" lon="7.24339">
        <ele>806</ele>
        <time>2015-06-29T08:49:00Z</time>
      </trkpt>
      <trkpt lat="48.23382" lon="7.24347">
        <ele>807</ele>
        <time>2015-06-29T08:49:05Z</time>
      </trkpt>
      <trkpt lat="48.23383" lon="7.24354">
        <ele>808</ele>
        <time>2015-06-29T08:49:09Z</time>
      </trkpt>
      <trkpt lat="48.23383" lon="7.24362">
        <ele>808</ele>
        <time>2015-06-29T08:49:11Z</time>
      </trkpt>
      <trkpt lat="48.23383" lon="7.24369">
        <ele>809</ele>
        <time>2015-06-29T08:49:15Z</time>
      </trkpt>
      <trkpt lat="48.23385" lon="7.24376">
        <ele>810</ele>
        <time>2015-06-29T08:49:21Z</time>
      </trkpt>
      <trkpt lat="48.23385" lon="7.24383">
        <ele>812</ele>
        <time>2015-06-29T08:49:29Z</time>
      </trkpt>
      <trkpt lat="48.23384" lon="7.2439">
        <ele>812</ele>
        <time>2015-06-29T08:49:34Z</time>
      </trkpt>
      <trkpt lat="48.23386" lon="7.24397">
        <ele>813</ele>
        <time>2015-06-29T08:49:38Z</time>
      </trkpt>
      <trkpt lat="48.23384" lon="7.24405">
        <ele>814</ele>
        <time>2015-06-29T08:49:42Z</time>
      </trkpt>
      <trkpt lat="48.23383" lon="7.24414">
        <ele>815</ele>
        <time>2015-06-29T08:49:47Z</time>
      </trkpt>
      <trkpt lat="48.23383" lon="7.24422">
        <ele>816</ele>
        <time>2015-06-29T08:49:51Z</time>
      </trkpt>
      <trkpt lat="48.23383" lon="7.24432">
        <ele>817</ele>
        <time>2015-06-29T08:49:54Z</time>
      </trkpt>
      <trkpt lat="48.23384" lon="7.2444">
        <ele>819</ele>
        <time>2015-06-29T08:50:13Z</time>
      </trkpt>
      <trkpt lat="48.23385" lon="7.24447">
        <ele>819</ele>
        <time>2015-06-29T08:50:18Z</time>
      </trkpt>
      <trkpt lat="48.23385" lon="7.24454">
        <ele>820</ele>
        <time>2015-06-29T08:50:24Z</time>
      </trkpt>
      <trkpt lat="48.23383" lon="7.24461">
        <ele>821</ele>
        <time>2015-06-29T08:50:33Z</time>
      </trkpt>
      <trkpt lat="48.23381" lon="7.24467">
        <ele>821</ele>
        <time>2015-06-29T08:50:38Z</time>
      </trkpt>
      <trkpt lat="48.23378" lon="7.24473">
        <ele>821</ele>
        <time>2015-06-29T08:50:41Z</time>
      </trkpt>
      <trkpt lat="48.23375" lon="7.24479">
        <ele>821</ele>
        <time>2015-06-29T08:50:45Z</time>
      </trkpt>
      <trkpt lat="48.23375" lon="7.24486">
        <ele>822</ele>
        <time>2015-06-29T08:50:51Z</time>
      </trkpt>
      <trkpt lat="48.23372" lon="7.24492">
        <ele>823</ele>
        <time>2015-06-29T08:50:57Z</time>
      </trkpt>
      <trkpt lat="48.23372" lon="7.245">
        <ele>823</ele>
        <time>2015-06-29T08:51:01Z</time>
      </trkpt>
      <trkpt lat="48.2337" lon="7.24506">
        <ele>824</ele>
        <time>2015-06-29T08:51:09Z</time>
      </trkpt>
      <trkpt lat="48.23369" lon="7.24513">
        <ele>825</ele>
        <time>2015-06-29T08:51:13Z</time>
      </trkpt>
      <trkpt lat="48.23367" lon="7.2452">
        <ele>825</ele>
        <time>2015-06-29T08:51:16Z</time>
      </trkpt>
      <trkpt lat="48.23364" lon="7.24525">
        <ele>826</ele>
        <time>2015-06-29T08:51:27Z</time>
      </trkpt>
      <trkpt lat="48.23364" lon="7.24532">
        <ele>827</ele>
        <time>2015-06-29T08:51:34Z</time>
      </trkpt>
      <trkpt lat="48.23362" lon="7.24539">
        <ele>827</ele>
        <time>2015-06-29T08:51:38Z</time>
      </trkpt>
      <trkpt lat="48.2336" lon="7.24545">
        <ele>827</ele>
        <time>2015-06-29T08:51:41Z</time>
      </trkpt>
      <trkpt lat="48.23357" lon="7.24551">
        <ele>827</ele>
        <time>2015-06-29T08:51:45Z</time>
      </trkpt>
      <trkpt lat="48.23356" lon="7.24559">
        <ele>827</ele>
        <time>2015-06-29T08:51:51Z</time>
      </trkpt>
      <trkpt lat="48.23356" lon="7.24568">
        <ele>827</ele>
        <time>2015-06-29T08:51:58Z</time>
      </trkpt>
      <trkpt lat="48.23354" lon="7.24574">
        <ele>828</ele>
        <time>2015-06-29T08:52:02Z</time>
      </trkpt>
      <trkpt lat="48.23353" lon="7.24582">
        <ele>829</ele>
        <time>2015-06-29T08:52:09Z</time>
      </trkpt>
      <trkpt lat="48.23356" lon="7.24587">
        <ele>829</ele>
        <time>2015-06-29T08:52:11Z</time>
      </trkpt>
      <trkpt lat="48.23359" lon="7.24592">
        <ele>829</ele>
        <time>2015-06-29T08:52:15Z</time>
      </trkpt>
      <trkpt lat="48.23357" lon="7.246">
        <ele>830</ele>
        <time>2015-06-29T08:52:19Z</time>
      </trkpt>
      <trkpt lat="48.23359" lon="7.24607">
        <ele>831</ele>
        <time>2015-06-29T08:52:28Z</time>
      </trkpt>
      <trkpt lat="48.23357" lon="7.24614">
        <ele>832</ele>
        <time>2015-06-29T08:52:31Z</time>
      </trkpt>
      <trkpt lat="48.23357" lon="7.24622">
        <ele>833</ele>
        <time>2015-06-29T08:52:36Z</time>
      </trkpt>
      <trkpt lat="48.23354" lon="7.24628">
        <ele>833</ele>
        <time>2015-06-29T08:52:39Z</time>
      </trkpt>
      <trkpt lat="48.23353" lon="7.24636">
        <ele>834</ele>
        <time>2015-06-29T08:52:56Z</time>
      </trkpt>
      <trkpt lat="48.2335" lon="7.24643">
        <ele>834</ele>
        <time>2015-06-29T08:52:59Z</time>
      </trkpt>
      <trkpt lat="48.23348" lon="7.24652">
        <ele>834</ele>
        <time>2015-06-29T08:53:03Z</time>
      </trkpt>
      <trkpt lat="48.23346" lon="7.24659">
        <ele>835</ele>
        <time>2015-06-29T08:53:09Z</time>
      </trkpt>
      <trkpt lat="48.23347" lon="7.24666">
        <ele>835</ele>
        <time>2015-06-29T08:53:14Z</time>
      </trkpt>
      <trkpt lat="48.23346" lon="7.24672">
        <ele>836</ele>
        <time>2015-06-29T08:53:18Z</time>
      </trkpt>
      <trkpt lat="48.23345" lon="7.2468">
        <ele>838</ele>
        <time>2015-06-29T08:53:28Z</time>
      </trkpt>
      <trkpt lat="48.23344" lon="7.24686">
        <ele>839</ele>
        <time>2015-06-29T08:53:34Z</time>
      </trkpt>
      <trkpt lat="48.23344" lon="7.24695">
        <ele>839</ele>
        <time>2015-06-29T08:53:38Z</time>
      </trkpt>
      <trkpt lat="48.23345" lon="7.24703">
        <ele>840</ele>
        <time>2015-06-29T08:53:42Z</time>
      </trkpt>
      <trkpt lat="48.23345" lon="7.2471">
        <ele>840</ele>
        <time>2015-06-29T08:53:48Z</time>
      </trkpt>
      <trkpt lat="48.23344" lon="7.24717">
        <ele>842</ele>
        <time>2015-06-29T08:53:55Z</time>
      </trkpt>
      <trkpt lat="48.23345" lon="7.24724">
        <ele>843</ele>
        <time>2015-06-29T08:54:05Z</time>
      </trkpt>
      <trkpt lat="48.23349" lon="7.24728">
        <ele>844</ele>
        <time>2015-06-29T08:54:11Z</time>
      </trkpt>
      <trkpt lat="48.23349" lon="7.24735">
        <ele>844</ele>
        <time>2015-06-29T08:54:16Z</time>
      </trkpt>
      <trkpt lat="48.23349" lon="7.24743">
        <ele>844</ele>
        <time>2015-06-29T08:54:20Z</time>
      </trkpt>
      <trkpt lat="48.2335" lon="7.2475">
        <ele>844</ele>
        <time>2015-06-29T08:54:24Z</time>
      </trkpt>
      <trkpt lat="48.2335" lon="7.24757">
        <ele>845</ele>
        <time>2015-06-29T08:54:29Z</time>
      </trkpt>
      <trkpt lat="48.23351" lon="7.24764">
        <ele>847</ele>
        <time>2015-06-29T08:54:35Z</time>
      </trkpt>
      <trkpt lat="48.23351" lon="7.24771">
        <ele>847</ele>
        <time>2015-06-29T08:54:39Z</time>
      </trkpt>
      <trkpt lat="48.23353" lon="7.24778">
        <ele>849</ele>
        <time>2015-06-29T08:54:48Z</time>
      </trkpt>
      <trkpt lat="48.23356" lon="7.24784">
        <ele>850</ele>
        <time>2015-06-29T08:54:53Z</time>
      </trkpt>
      <trkpt lat="48.23356" lon="7.24791">
        <ele>851</ele>
        <time>2015-06-29T08:54:57Z</time>
      </trkpt>
      <trkpt lat="48.23356" lon="7.24799">
        <ele>852</ele>
        <time>2015-06-29T08:55:01Z</time>
      </trkpt>
      <trkpt lat="48.23357" lon="7.24806">
        <ele>852</ele>
        <time>2015-06-29T08:55:05Z</time>
      </trkpt>
      <trkpt lat="48.23358" lon="7.24813">
        <ele>853</ele>
        <time>2015-06-29T08:55:13Z</time>
      </trkpt>
      <trkpt lat="48.23359" lon="7.2482">
        <ele>854</ele>
        <time>2015-06-29T08:55:19Z</time>
      </trkpt>
      <trkpt lat="48.2336" lon="7.24827">
        <ele>856</ele>
        <time>2015-06-29T08:55:25Z</time>
      </trkpt>
      <trkpt lat="48.23361" lon="7.24835">
        <ele>856</ele>
        <time>2015-06-29T08:55:29Z</time>
      </trkpt>
      <trkpt lat="48.23362" lon="7.24843">
        <ele>857</ele>
        <time>2015-06-29T08:55:33Z</time>
      </trkpt>
      <trkpt lat="48.23363" lon="7.24849">
        <ele>859</ele>
        <time>2015-06-29T08:55:40Z</time>
      </trkpt>
      <trkpt lat="48.23364" lon="7.24856">
        <ele>859</ele>
        <time>2015-06-29T08:55:53Z</time>
      </trkpt>
      <trkpt lat="48.23364" lon="7.24864">
        <ele>859</ele>
        <time>2015-06-29T08:56:02Z</time>
      </trkpt>
      <trkpt lat="48.23364" lon="7.24872">
        <ele>859</ele>
        <time>2015-06-29T08:56:06Z</time>
      </trkpt>
      <trkpt lat="48.23364" lon="7.2488">
        <ele>859</ele>
        <time>2015-06-29T08:56:11Z</time>
      </trkpt>
      <trkpt lat="48.23364" lon="7.24887">
        <ele>859</ele>
        <time>2015-06-29T08:56:15Z</time>
      </trkpt>
      <trkpt lat="48.23365" lon="7.24894">
        <ele>859</ele>
        <time>2015-06-29T08:56:19Z</time>
      </trkpt>
      <trkpt lat="48.23366" lon="7.24901">
        <ele>860</ele>
        <time>2015-06-29T08:56:27Z</time>
      </trkpt>
      <trkpt lat="48.23367" lon="7.24909">
        <ele>861</ele>
        <time>2015-06-29T08:56:34Z</time>
      </trkpt>
      <trkpt lat="48.23367" lon="7.24916">
        <ele>862</ele>
        <time>2015-06-29T08:56:38Z</time>
      </trkpt>
      <trkpt lat="48.23367" lon="7.24923">
        <ele>862</ele>
        <time>2015-06-29T08:56:42Z</time>
      </trkpt>
      <trkpt lat="48.2337" lon="7.2493">
        <ele>864</ele>
        <time>2015-06-29T08:56:49Z</time>
      </trkpt>
      <trkpt lat="48.23372" lon="7.24936">
        <ele>866</ele>
        <time>2015-06-29T08:56:58Z</time>
      </trkpt>
      <trkpt lat="48.23373" lon="7.24943">
        <ele>866</ele>
        <time>2015-06-29T08:57:03Z</time>
      </trkpt>
      <trkpt lat="48.23374" lon="7.24951">
        <ele>867</ele>
        <time>2015-06-29T08:57:07Z</time>
      </trkpt>
      <trkpt lat="48.23375" lon="7.24957">
        <ele>867</ele>
        <time>2015-06-29T08:57:12Z</time>
      </trkpt>
      <trkpt lat="48.23375" lon="7.24965">
        <ele>868</ele>
        <time>2015-06-29T08:57:17Z</time>
      </trkpt>
      <trkpt lat="48.23378" lon="7.24972">
        <ele>868</ele>
        <time>2015-06-29T08:57:21Z</time>
      </trkpt>
      <trkpt lat="48.23377" lon="7.24979">
        <ele>869</ele>
        <time>2015-06-29T08:57:26Z</time>
      </trkpt>
      <trkpt lat="48.23376" lon="7.24986">
        <ele>869</ele>
        <time>2015-06-29T08:57:31Z</time>
      </trkpt>
      <trkpt lat="48.23377" lon="7.24993">
        <ele>870</ele>
        <time>2015-06-29T08:57:35Z</time>
      </trkpt>
      <trkpt lat="48.23377" lon="7.25001">
        <ele>870</ele>
        <time>2015-06-29T08:57:47Z</time>
      </trkpt>
      <trkpt lat="48.2338" lon="7.25009">
        <ele>871</ele>
        <time>2015-06-29T08:57:55Z</time>
      </trkpt>
      <trkpt lat="48.23383" lon="7.25017">
        <ele>871</ele>
        <time>2015-06-29T08:57:59Z</time>
      </trkpt>
      <trkpt lat="48.23385" lon="7.25023">
        <ele>871</ele>
        <time>2015-06-29T08:58:05Z</time>
      </trkpt>
      <trkpt lat="48.23386" lon="7.2503">
        <ele>872</ele>
        <time>2015-06-29T08:58:14Z</time>
      </trkpt>
      <trkpt lat="48.23385" lon="7.25038">
        <ele>872</ele>
        <time>2015-06-29T08:58:19Z</time>
      </trkpt>
      <trkpt lat="48.23385" lon="7.25046">
        <ele>872</ele>
        <time>2015-06-29T08:58:24Z</time>
      </trkpt>
      <trkpt lat="48.23387" lon="7.25053">
        <ele>873</ele>
        <time>2015-06-29T08:58:29Z</time>
      </trkpt>
      <trkpt lat="48.23388" lon="7.2506">
        <ele>874</ele>
        <time>2015-06-29T08:58:35Z</time>
      </trkpt>
      <trkpt lat="48.2339" lon="7.25066">
        <ele>875</ele>
        <time>2015-06-29T08:58:41Z</time>
      </trkpt>
      <trkpt lat="48.23391" lon="7.25074">
        <ele>876</ele>
        <time>2015-06-29T08:58:46Z</time>
      </trkpt>
      <trkpt lat="48.23392" lon="7.25081">
        <ele>877</ele>
        <time>2015-06-29T08:58:50Z</time>
      </trkpt>
      <trkpt lat="48.23393" lon="7.25088">
        <ele>877</ele>
        <time>2015-06-29T08:58:54Z</time>
      </trkpt>
      <trkpt lat="48.23397" lon="7.25094">
        <ele>878</ele>
        <time>2015-06-29T08:58:59Z</time>
      </trkpt>
      <trkpt lat="48.23398" lon="7.251">
        <ele>878</ele>
        <time>2015-06-29T08:59:18Z</time>
      </trkpt>
      <trkpt lat="48.23396" lon="7.25107">
        <ele>879</ele>
        <time>2015-06-29T08:59:26Z</time>
      </trkpt>
      <trkpt lat="48.23396" lon="7.25114">
        <ele>879</ele>
        <time>2015-06-29T08:59:33Z</time>
      </trkpt>
      <trkpt lat="48.23397" lon="7.2512">
        <ele>880</ele>
        <time>2015-06-29T08:59:39Z</time>
      </trkpt>
      <trkpt lat="48.23399" lon="7.25128">
        <ele>881</ele>
        <time>2015-06-29T08:59:44Z</time>
      </trkpt>
      <trkpt lat="48.23401" lon="7.25135">
        <ele>881</ele>
        <time>2015-06-29T08:59:48Z</time>
      </trkpt>
      <trkpt lat="48.23404" lon="7.25141">
        <ele>881</ele>
        <time>2015-06-29T08:59:52Z</time>
      </trkpt>
      <trkpt lat="48.23407" lon="7.25148">
        <ele>881</ele>
        <time>2015-06-29T08:59:58Z</time>
      </trkpt>
      <trkpt lat="48.23409" lon="7.25155">
        <ele>882</ele>
        <time>2015-06-29T09:00:01Z</time>
      </trkpt>
      <trkpt lat="48.23412" lon="7.25161">
        <ele>882</ele>
        <time>2015-06-29T09:00:05Z</time>
      </trkpt>
      <trkpt lat="48.23415" lon="7.25168">
        <ele>883</ele>
        <time>2015-06-29T09:00:11Z</time>
      </trkpt>
      <trkpt lat="48.23416" lon="7.25175">
        <ele>883</ele>
        <time>2015-06-29T09:00:15Z</time>
      </trkpt>
      <trkpt lat="48.23418" lon="7.25185">
        <ele>884</ele>
        <time>2015-06-29T09:00:20Z</time>
      </trkpt>
      <trkpt lat="48.2342" lon="7.25192">
        <ele>885</ele>
        <time>2015-06-29T09:00:26Z</time>
      </trkpt>
      <trkpt lat="48.23421" lon="7.25199">
        <ele>885</ele>
        <time>2015-06-29T09:00:32Z</time>
      </trkpt>
      <trkpt lat="48.23423" lon="7.25208">
        <ele>885</ele>
        <time>2015-06-29T09:00:37Z</time>
      </trkpt>
      <trkpt lat="48.23425" lon="7.25214">
        <ele>886</ele>
        <time>2015-06-29T09:00:41Z</time>
      </trkpt>
      <trkpt lat="48.23426" lon="7.25221">
        <ele>886</ele>
        <time>2015-06-29T09:00:46Z</time>
      </trkpt>
      <trkpt lat="48.23429" lon="7.25227">
        <ele>886</ele>
        <time>2015-06-29T09:00:50Z</time>
      </trkpt>
      <trkpt lat="48.23433" lon="7.25232">
        <ele>887</ele>
        <time>2015-06-29T09:00:53Z</time>
      </trkpt>
      <trkpt lat="48.23436" lon="7.25238">
        <ele>888</ele>
        <time>2015-06-29T09:00:58Z</time>
      </trkpt>
      <trkpt lat="48.23438" lon="7.25245">
        <ele>889</ele>
        <time>2015-06-29T09:01:07Z</time>
      </trkpt>
      <trkpt lat="48.23441" lon="7.25251">
        <ele>890</ele>
        <time>2015-06-29T09:01:13Z</time>
      </trkpt>
      <trkpt lat="48.23444" lon="7.25256">
        <ele>890</ele>
        <time>2015-06-29T09:01:16Z</time>
      </trkpt>
      <trkpt lat="48.23446" lon="7.25263">
        <ele>891</ele>
        <time>2015-06-29T09:01:20Z</time>
      </trkpt>
      <trkpt lat="48.23449" lon="7.25269">
        <ele>893</ele>
        <time>2015-06-29T09:01:25Z</time>
      </trkpt>
      <trkpt lat="48.23448" lon="7.25276">
        <ele>893</ele>
        <time>2015-06-29T09:01:45Z</time>
      </trkpt>
      <trkpt lat="48.23453" lon="7.25284">
        <ele>894</ele>
        <time>2015-06-29T09:01:49Z</time>
      </trkpt>
      <trkpt lat="48.23456" lon="7.25289">
        <ele>895</ele>
        <time>2015-06-29T09:01:52Z</time>
      </trkpt>
      <trkpt lat="48.2346" lon="7.25296">
        <ele>896</ele>
        <time>2015-06-29T09:01:56Z</time>
      </trkpt>
      <trkpt lat="48.23463" lon="7.25301">
        <ele>896</ele>
        <time>2015-06-29T09:02:00Z</time>
      </trkpt>
      <trkpt lat="48.23467" lon="7.25308">
        <ele>897</ele>
        <time>2015-06-29T09:02:05Z</time>
      </trkpt>
      <trkpt lat="48.23469" lon="7.25314">
        <ele>897</ele>
        <time>2015-06-29T09:02:16Z</time>
      </trkpt>
      <trkpt lat="48.23474" lon="7.25318">
        <ele>898</ele>
        <time>2015-06-29T09:02:20Z</time>
      </trkpt>
      <trkpt lat="48.23478" lon="7.25323">
        <ele>898</ele>
        <time>2015-06-29T09:02:26Z</time>
      </trkpt>
      <trkpt lat="48.23482" lon="7.25329">
        <ele>898</ele>
        <time>2015-06-29T09:02:32Z</time>
      </trkpt>
      <trkpt lat="48.23485" lon="7.25334">
        <ele>898</ele>
        <time>2015-06-29T09:02:35Z</time>
      </trkpt>
      <trkpt lat="48.23486" lon="7.25341">
        <ele>898</ele>
        <time>2015-06-29T09:02:38Z</time>
      </trkpt>
      <trkpt lat="48.2349" lon="7.25346">
        <ele>897</ele>
        <time>2015-06-29T09:02:44Z</time>
      </trkpt>
      <trkpt lat="48.23494" lon="7.25348">
        <ele>898</ele>
        <time>2015-06-29T09:02:50Z</time>
      </trkpt>
      <trkpt lat="48.23499" lon="7.2535">
        <ele>898</ele>
        <time>2015-06-29T09:02:55Z</time>
      </trkpt>
      <trkpt lat="48.23504" lon="7.25355">
        <ele>898</ele>
        <time>2015-06-29T09:02:59Z</time>
      </trkpt>
      <trkpt lat="48.23507" lon="7.25361">
        <ele>898</ele>
        <time>2015-06-29T09:03:02Z</time>
      </trkpt>
      <trkpt lat="48.23511" lon="7.25366">
        <ele>898</ele>
        <time>2015-06-29T09:03:06Z</time>
      </trkpt>
      <trkpt lat="48.23515" lon="7.2537">
        <ele>899</ele>
        <time>2015-06-29T09:03:11Z</time>
      </trkpt>
      <trkpt lat="48.2352" lon="7.25372">
        <ele>899</ele>
        <time>2015-06-29T09:03:15Z</time>
      </trkpt>
      <trkpt lat="48.23525" lon="7.25374">
        <ele>899</ele>
        <time>2015-06-29T09:03:19Z</time>
      </trkpt>
      <trkpt lat="48.2353" lon="7.25376">
        <ele>900</ele>
        <time>2015-06-29T09:03:24Z</time>
      </trkpt>
      <trkpt lat="48.23534" lon="7.25379">
        <ele>900</ele>
        <time>2015-06-29T09:03:31Z</time>
      </trkpt>
      <trkpt lat="48.23539" lon="7.25381">
        <ele>900</ele>
        <time>2015-06-29T09:03:38Z</time>
      </trkpt>
      <trkpt lat="48.23544" lon="7.25384">
        <ele>901</ele>
        <time>2015-06-29T09:03:44Z</time>
      </trkpt>
      <trkpt lat="48.23549" lon="7.25385">
        <ele>902</ele>
        <time>2015-06-29T09:03:51Z</time>
      </trkpt>
      <trkpt lat="48.23553" lon="7.25383">
        <ele>903</ele>
        <time>2015-06-29T09:03:59Z</time>
      </trkpt>
      <trkpt lat="48.23559" lon="7.25385">
        <ele>905</ele>
        <time>2015-06-29T09:04:06Z</time>
      </trkpt>
      <trkpt lat="48.23566" lon="7.25384">
        <ele>905</ele>
        <time>2015-06-29T09:04:09Z</time>
      </trkpt>
      <trkpt lat="48.2357" lon="7.25385">
        <ele>907</ele>
        <time>2015-06-29T09:04:15Z</time>
      </trkpt>
      <trkpt lat="48.23575" lon="7.25386">
        <ele>908</ele>
        <time>2015-06-29T09:04:23Z</time>
      </trkpt>
      <trkpt lat="48.23579" lon="7.25383">
        <ele>910</ele>
        <time>2015-06-29T09:04:29Z</time>
      </trkpt>
      <trkpt lat="48.23584" lon="7.25382">
        <ele>912</ele>
        <time>2015-06-29T09:04:35Z</time>
      </trkpt>
      <trkpt lat="48.23589" lon="7.25381">
        <ele>914</ele>
        <time>2015-06-29T09:04:40Z</time>
      </trkpt>
      <trkpt lat="48.23594" lon="7.25382">
        <ele>916</ele>
        <time>2015-06-29T09:04:46Z</time>
      </trkpt>
      <trkpt lat="48.23599" lon="7.25384">
        <ele>917</ele>
        <time>2015-06-29T09:04:51Z</time>
      </trkpt>
      <trkpt lat="48.23604" lon="7.25386">
        <ele>919</ele>
        <time>2015-06-29T09:05:07Z</time>
      </trkpt>
      <trkpt lat="48.23608" lon="7.2539">
        <ele>919</ele>
        <time>2015-06-29T09:05:36Z</time>
      </trkpt>
      <trkpt lat="48.23608" lon="7.25391">
        <ele>919</ele>
        <time>2015-06-29T09:05:40Z</time>
      </trkpt>
      <trkpt lat="48.23607" lon="7.25398">
        <ele>919</ele>
        <time>2015-06-29T09:05:51Z</time>
      </trkpt>
      <trkpt lat="48.23611" lon="7.25395">
        <ele>920</ele>
        <time>2015-06-29T09:06:06Z</time>
      </trkpt>
      <trkpt lat="48.23612" lon="7.25389">
        <ele>920</ele>
        <time>2015-06-29T09:06:36Z</time>
      </trkpt>
      <trkpt lat="48.23616" lon="7.25397">
        <ele>920</ele>
        <time>2015-06-29T09:07:04Z</time>
      </trkpt>
      <trkpt lat="48.23621" lon="7.25397">
        <ele>921</ele>
        <time>2015-06-29T09:07:09Z</time>
      </trkpt>
      <trkpt lat="48.23625" lon="7.25399">
        <ele>922</ele>
        <time>2015-06-29T09:07:15Z</time>
      </trkpt>
      <trkpt lat="48.23629" lon="7.25402">
        <ele>924</ele>
        <time>2015-06-29T09:07:22Z</time>
      </trkpt>
      <trkpt lat="48.23633" lon="7.25407">
        <ele>925</ele>
        <time>2015-06-29T09:07:26Z</time>
      </trkpt>
      <trkpt lat="48.23636" lon="7.25413">
        <ele>926</ele>
        <time>2015-06-29T09:07:29Z</time>
      </trkpt>
      <trkpt lat="48.23639" lon="7.25418">
        <ele>926</ele>
        <time>2015-06-29T09:07:33Z</time>
      </trkpt>
      <trkpt lat="48.23643" lon="7.25424">
        <ele>927</ele>
        <time>2015-06-29T09:07:38Z</time>
      </trkpt>
      <trkpt lat="48.23647" lon="7.25429">
        <ele>927</ele>
        <time>2015-06-29T09:07:42Z</time>
      </trkpt>
      <trkpt lat="48.23652" lon="7.25432">
        <ele>927</ele>
        <time>2015-06-29T09:07:48Z</time>
      </trkpt>
      <trkpt lat="48.23657" lon="7.25434">
        <ele>927</ele>
        <time>2015-06-29T09:07:54Z</time>
      </trkpt>
      <trkpt lat="48.23661" lon="7.25437">
        <ele>928</ele>
        <time>2015-06-29T09:07:58Z</time>
      </trkpt>
      <trkpt lat="48.23664" lon="7.25442">
        <ele>928</ele>
        <time>2015-06-29T09:08:05Z</time>
      </trkpt>
      <trkpt lat="48.23667" lon="7.25449">
        <ele>929</ele>
        <time>2015-06-29T09:08:09Z</time>
      </trkpt>
      <trkpt lat="48.23671" lon="7.25455">
        <ele>929</ele>
        <time>2015-06-29T09:08:14Z</time>
      </trkpt>
      <trkpt lat="48.23672" lon="7.25463">
        <ele>930</ele>
        <time>2015-06-29T09:08:20Z</time>
      </trkpt>
      <trkpt lat="48.23673" lon="7.2547">
        <ele>930</ele>
        <time>2015-06-29T09:08:26Z</time>
      </trkpt>
      <trkpt lat="48.23674" lon="7.25477">
        <ele>931</ele>
        <time>2015-06-29T09:08:32Z</time>
      </trkpt>
      <trkpt lat="48.23673" lon="7.25485">
        <ele>931</ele>
        <time>2015-06-29T09:08:37Z</time>
      </trkpt>
      <trkpt lat="48.23673" lon="7.25492">
        <ele>931</ele>
        <time>2015-06-29T09:08:41Z</time>
      </trkpt>
      <trkpt lat="48.23672" lon="7.25498">
        <ele>931</ele>
        <time>2015-06-29T09:08:50Z</time>
      </trkpt>
      <trkpt lat="48.23673" lon="7.25499">
        <ele>932</ele>
        <time>2015-06-29T09:09:07Z</time>
      </trkpt>
      <trkpt lat="48.23669" lon="7.25493">
        <ele>934</ele>
        <time>2015-06-29T09:09:13Z</time>
      </trkpt>
      <trkpt lat="48.23665" lon="7.25489">
        <ele>935</ele>
        <time>2015-06-29T09:09:17Z</time>
      </trkpt>
      <trkpt lat="48.2366" lon="7.25488">
        <ele>936</ele>
        <time>2015-06-29T09:09:20Z</time>
      </trkpt>
      <trkpt lat="48.23655" lon="7.25483">
        <ele>939</ele>
        <time>2015-06-29T09:09:31Z</time>
      </trkpt>
      <trkpt lat="48.2365" lon="7.2548">
        <ele>939</ele>
        <time>2015-06-29T09:09:34Z</time>
      </trkpt>
      <trkpt lat="48.23646" lon="7.25477">
        <ele>941</ele>
        <time>2015-06-29T09:09:39Z</time>
      </trkpt>
      <trkpt lat="48.23641" lon="7.25475">
        <ele>942</ele>
        <time>2015-06-29T09:09:46Z</time>
      </trkpt>
      <trkpt lat="48.23636" lon="7.25473">
        <ele>943</ele>
        <time>2015-06-29T09:09:53Z</time>
      </trkpt>
      <trkpt lat="48.23631" lon="7.2547">
        <ele>944</ele>
        <time>2015-06-29T09:09:57Z</time>
      </trkpt>
      <trkpt lat="48.23626" lon="7.25467">
        <ele>945</ele>
        <time>2015-06-29T09:10:02Z</time>
      </trkpt>
      <trkpt lat="48.23621" lon="7.25465">
        <ele>945</ele>
        <time>2015-06-29T09:10:07Z</time>
      </trkpt>
      <trkpt lat="48.23615" lon="7.25465">
        <ele>946</ele>
        <time>2015-06-29T09:10:10Z</time>
      </trkpt>
      <trkpt lat="48.2361" lon="7.25464">
        <ele>946</ele>
        <time>2015-06-29T09:10:13Z</time>
      </trkpt>
      <trkpt lat="48.23605" lon="7.25461">
        <ele>947</ele>
        <time>2015-06-29T09:10:17Z</time>
      </trkpt>
      <trkpt lat="48.23601" lon="7.25459">
        <ele>947</ele>
        <time>2015-06-29T09:10:21Z</time>
      </trkpt>
      <trkpt lat="48.23597" lon="7.25457">
        <ele>948</ele>
        <time>2015-06-29T09:10:25Z</time>
      </trkpt>
      <trkpt lat="48.23592" lon="7.2546">
        <ele>948</ele>
        <time>2015-06-29T09:10:29Z</time>
      </trkpt>
      <trkpt lat="48.23586" lon="7.2546">
        <ele>948</ele>
        <time>2015-06-29T09:10:33Z</time>
      </trkpt>
      <trkpt lat="48.23581" lon="7.25461">
        <ele>949</ele>
        <time>2015-06-29T09:10:47Z</time>
      </trkpt>
      <trkpt lat="48.23577" lon="7.25464">
        <ele>949</ele>
        <time>2015-06-29T09:10:52Z</time>
      </trkpt>
      <trkpt lat="48.2357" lon="7.25466">
        <ele>949</ele>
        <time>2015-06-29T09:10:55Z</time>
      </trkpt>
      <trkpt lat="48.23565" lon="7.25465">
        <ele>949</ele>
        <time>2015-06-29T09:10:57Z</time>
      </trkpt>
      <trkpt lat="48.23561" lon="7.25467">
        <ele>949</ele>
        <time>2015-06-29T09:11:02Z</time>
      </trkpt>
      <trkpt lat="48.23556" lon="7.25469">
        <ele>949</ele>
        <time>2015-06-29T09:11:08Z</time>
      </trkpt>
      <trkpt lat="48.2355" lon="7.25471">
        <ele>950</ele>
        <time>2015-06-29T09:11:12Z</time>
      </trkpt>
      <trkpt lat="48.23545" lon="7.25473">
        <ele>950</ele>
        <time>2015-06-29T09:11:20Z</time>
      </trkpt>
      <trkpt lat="48.2354" lon="7.25476">
        <ele>951</ele>
        <time>2015-06-29T09:11:24Z</time>
      </trkpt>
      <trkpt lat="48.23535" lon="7.25479">
        <ele>952</ele>
        <time>2015-06-29T09:11:34Z</time>
      </trkpt>
      <trkpt lat="48.23531" lon="7.25483">
        <ele>952</ele>
        <time>2015-06-29T09:11:38Z</time>
      </trkpt>
      <trkpt lat="48.23525" lon="7.25485">
        <ele>952</ele>
        <time>2015-06-29T09:11:41Z</time>
      </trkpt>
      <trkpt lat="48.2352" lon="7.25486">
        <ele>952</ele>
        <time>2015-06-29T09:11:45Z</time>
      </trkpt>
      <trkpt lat="48.23515" lon="7.25486">
        <ele>952</ele>
        <time>2015-06-29T09:11:50Z</time>
      </trkpt>
      <trkpt lat="48.2351" lon="7.25485">
        <ele>953</ele>
        <time>2015-06-29T09:11:54Z</time>
      </trkpt>
      <trkpt lat="48.23506" lon="7.25484">
        <ele>954</ele>
        <time>2015-06-29T09:12:00Z</time>
      </trkpt>
      <trkpt lat="48.23501" lon="7.25485">
        <ele>954</ele>
        <time>2015-06-29T09:12:06Z</time>
      </trkpt>
      <trkpt lat="48.23497" lon="7.25488">
        <ele>955</ele>
        <time>2015-06-29T09:12:10Z</time>
      </trkpt>
      <trkpt lat="48.23492" lon="7.25488">
        <ele>956</ele>
        <time>2015-06-29T09:12:15Z</time>
      </trkpt>
      <trkpt lat="48.23487" lon="7.25487">
        <ele>956</ele>
        <time>2015-06-29T09:12:21Z</time>
      </trkpt>
      <trkpt lat="48.23483" lon="7.25486">
        <ele>957</ele>
        <time>2015-06-29T09:12:28Z</time>
      </trkpt>
      <trkpt lat="48.23486" lon="7.25491">
        <ele>958</ele>
        <time>2015-06-29T09:12:48Z</time>
      </trkpt>
      <trkpt lat="48.2349" lon="7.25496">
        <ele>958</ele>
        <time>2015-06-29T09:12:53Z</time>
      </trkpt>
      <trkpt lat="48.23495" lon="7.25499">
        <ele>958</ele>
        <time>2015-06-29T09:13:00Z</time>
      </trkpt>
      <trkpt lat="48.23499" lon="7.255">
        <ele>958</ele>
        <time>2015-06-29T09:13:05Z</time>
      </trkpt>
      <trkpt lat="48.23504" lon="7.25502">
        <ele>958</ele>
        <time>2015-06-29T09:13:11Z</time>
      </trkpt>
      <trkpt lat="48.23509" lon="7.25502">
        <ele>959</ele>
        <time>2015-06-29T09:13:17Z</time>
      </trkpt>
      <trkpt lat="48.23514" lon="7.25503">
        <ele>959</ele>
        <time>2015-06-29T09:13:21Z</time>
      </trkpt>
      <trkpt lat="48.23518" lon="7.25504">
        <ele>960</ele>
        <time>2015-06-29T09:13:27Z</time>
      </trkpt>
      <trkpt lat="48.23523" lon="7.25504">
        <ele>960</ele>
        <time>2015-06-29T09:13:33Z</time>
      </trkpt>
      <trkpt lat="48.23526" lon="7.25509">
        <ele>961</ele>
        <time>2015-06-29T09:13:40Z</time>
      </trkpt>
      <trkpt lat="48.2353" lon="7.25514">
        <ele>961</ele>
        <time>2015-06-29T09:13:45Z</time>
      </trkpt>
      <trkpt lat="48.23534" lon="7.25519">
        <ele>962</ele>
        <time>2015-06-29T09:13:51Z</time>
      </trkpt>
      <trkpt lat="48.23539" lon="7.25521">
        <ele>963</ele>
        <time>2015-06-29T09:13:57Z</time>
      </trkpt>
      <trkpt lat="48.23542" lon="7.25525">
        <ele>963</ele>
        <time>2015-06-29T09:14:04Z</time>
      </trkpt>
      <trkpt lat="48.23547" lon="7.2553">
        <ele>964</ele>
        <time>2015-06-29T09:14:15Z</time>
      </trkpt>
      <trkpt lat="48.2355" lon="7.25535">
        <ele>965</ele>
        <time>2015-06-29T09:14:20Z</time>
      </trkpt>
      <trkpt lat="48.23555" lon="7.25539">
        <ele>966</ele>
        <time>2015-06-29T09:14:25Z</time>
      </trkpt>
      <trkpt lat="48.23558" lon="7.25544">
        <ele>968</ele>
        <time>2015-06-29T09:14:37Z</time>
      </trkpt>
      <trkpt lat="48.23562" lon="7.25547">
        <ele>969</ele>
        <time>2015-06-29T09:14:44Z</time>
      </trkpt>
      <trkpt lat="48.23566" lon="7.25552">
        <ele>970</ele>
        <time>2015-06-29T09:14:49Z</time>
      </trkpt>
      <trkpt lat="48.23568" lon="7.25559">
        <ele>970</ele>
        <time>2015-06-29T09:14:54Z</time>
      </trkpt>
      <trkpt lat="48.23573" lon="7.25565">
        <ele>971</ele>
        <time>2015-06-29T09:15:01Z</time>
      </trkpt>
      <trkpt lat="48.23577" lon="7.25568">
        <ele>971</ele>
        <time>2015-06-29T09:15:07Z</time>
      </trkpt>
      <trkpt lat="48.23579" lon="7.25575">
        <ele>971</ele>
        <time>2015-06-29T09:15:20Z</time>
      </trkpt>
      <trkpt lat="48.23579" lon="7.25582">
        <ele>972</ele>
        <time>2015-06-29T09:15:27Z</time>
      </trkpt>
      <trkpt lat="48.2358" lon="7.25589">
        <ele>972</ele>
        <time>2015-06-29T09:15:35Z</time>
      </trkpt>
      <trkpt lat="48.23583" lon="7.25595">
        <ele>973</ele>
        <time>2015-06-29T09:15:42Z</time>
      </trkpt>
      <trkpt lat="48.23587" lon="7.25596">
        <ele>974</ele>
        <time>2015-06-29T09:15:48Z</time>
      </trkpt>
      <trkpt lat="48.23589" lon="7.25602">
        <ele>975</ele>
        <time>2015-06-29T09:15:58Z</time>
      </trkpt>
      <trkpt lat="48.2359" lon="7.25609">
        <ele>975</ele>
        <time>2015-06-29T09:16:20Z</time>
      </trkpt>
      <trkpt lat="48.23586" lon="7.25614">
        <ele>977</ele>
        <time>2015-06-29T09:16:33Z</time>
      </trkpt>
      <trkpt lat="48.23583" lon="7.25618">
        <ele>978</ele>
        <time>2015-06-29T09:16:44Z</time>
      </trkpt>
      <trkpt lat="48.2358" lon="7.25625">
        <ele>978</ele>
        <time>2015-06-29T09:16:47Z</time>
      </trkpt>
      <trkpt lat="48.23578" lon="7.25631">
        <ele>978</ele>
        <time>2015-06-29T09:16:52Z</time>
      </trkpt>
      <trkpt lat="48.23576" lon="7.25638">
        <ele>978</ele>
        <time>2015-06-29T09:16:57Z</time>
      </trkpt>
      <trkpt lat="48.23573" lon="7.25646">
        <ele>979</ele>
        <time>2015-06-29T09:17:02Z</time>
      </trkpt>
      <trkpt lat="48.23571" lon="7.25652">
        <ele>979</ele>
        <time>2015-06-29T09:17:06Z</time>
      </trkpt>
      <trkpt lat="48.2357" lon="7.2566">
        <ele>979</ele>
        <time>2015-06-29T09:17:10Z</time>
      </trkpt>
      <trkpt lat="48.23566" lon="7.25666">
        <ele>979</ele>
        <time>2015-06-29T09:17:14Z</time>
      </trkpt>
      <trkpt lat="48.23564" lon="7.25674">
        <ele>979</ele>
        <time>2015-06-29T09:17:20Z</time>
      </trkpt>
      <trkpt lat="48.23562" lon="7.25681">
        <ele>979</ele>
        <time>2015-06-29T09:17:24Z</time>
      </trkpt>
      <trkpt lat="48.23558" lon="7.25687">
        <ele>979</ele>
        <time>2015-06-29T09:17:31Z</time>
      </trkpt>
      <trkpt lat="48.23555" lon="7.25692">
        <ele>979</ele>
        <time>2015-06-29T09:17:35Z</time>
      </trkpt>
      <trkpt lat="48.23552" lon="7.25697">
        <ele>980</ele>
        <time>2015-06-29T09:17:46Z</time>
      </trkpt>
      <trkpt lat="48.2355" lon="7.25707">
        <ele>980</ele>
        <time>2015-06-29T09:17:52Z</time>
      </trkpt>
      <trkpt lat="48.23549" lon="7.25714">
        <ele>980</ele>
        <time>2015-06-29T09:17:55Z</time>
      </trkpt>
      <trkpt lat="48.23547" lon="7.25721">
        <ele>981</ele>
        <time>2015-06-29T09:17:58Z</time>
      </trkpt>
      <trkpt lat="48.23545" lon="7.25727">
        <ele>981</ele>
        <time>2015-06-29T09:18:05Z</time>
      </trkpt>
      <trkpt lat="48.23544" lon="7.25735">
        <ele>982</ele>
        <time>2015-06-29T09:18:11Z</time>
      </trkpt>
      <trkpt lat="48.23543" lon="7.25743">
        <ele>982</ele>
        <time>2015-06-29T09:18:17Z</time>
      </trkpt>
      <trkpt lat="48.23541" lon="7.2575">
        <ele>983</ele>
        <time>2015-06-29T09:18:23Z</time>
      </trkpt>
      <trkpt lat="48.23538" lon="7.25757">
        <ele>983</ele>
        <time>2015-06-29T09:18:28Z</time>
      </trkpt>
      <trkpt lat="48.23537" lon="7.25763">
        <ele>983</ele>
        <time>2015-06-29T09:18:36Z</time>
      </trkpt>
      <trkpt lat="48.23534" lon="7.25769">
        <ele>983</ele>
        <time>2015-06-29T09:18:41Z</time>
      </trkpt>
      <trkpt lat="48.23533" lon="7.25777">
        <ele>984</ele>
        <time>2015-06-29T09:18:45Z</time>
      </trkpt>
      <trkpt lat="48.23534" lon="7.25785">
        <ele>984</ele>
        <time>2015-06-29T09:18:55Z</time>
      </trkpt>
      <trkpt lat="48.23534" lon="7.25792">
        <ele>984</ele>
        <time>2015-06-29T09:19:04Z</time>
      </trkpt>
      <trkpt lat="48.23533" lon="7.25799">
        <ele>984</ele>
        <time>2015-06-29T09:19:08Z</time>
      </trkpt>
      <trkpt lat="48.23533" lon="7.25806">
        <ele>984</ele>
        <time>2015-06-29T09:19:12Z</time>
      </trkpt>
      <trkpt lat="48.23534" lon="7.25813">
        <ele>984</ele>
        <time>2015-06-29T09:19:15Z</time>
      </trkpt>
      <trkpt lat="48.23536" lon="7.25823">
        <ele>985</ele>
        <time>2015-06-29T09:19:19Z</time>
      </trkpt>
      <trkpt lat="48.23534" lon="7.2583">
        <ele>985</ele>
        <time>2015-06-29T09:19:24Z</time>
      </trkpt>
      <trkpt lat="48.23534" lon="7.25837">
        <ele>985</ele>
        <time>2015-06-29T09:19:31Z</time>
      </trkpt>
      <trkpt lat="48.23533" lon="7.25844">
        <ele>986</ele>
        <time>2015-06-29T09:19:38Z</time>
      </trkpt>
      <trkpt lat="48.23532" lon="7.25851">
        <ele>986</ele>
        <time>2015-06-29T09:19:43Z</time>
      </trkpt>
      <trkpt lat="48.23531" lon="7.25859">
        <ele>987</ele>
        <time>2015-06-29T09:19:47Z</time>
      </trkpt>
      <trkpt lat="48.23529" lon="7.25866">
        <ele>987</ele>
        <time>2015-06-29T09:19:52Z</time>
      </trkpt>
      <trkpt lat="48.2353" lon="7.25873">
        <ele>987</ele>
        <time>2015-06-29T09:19:57Z</time>
      </trkpt>
      <trkpt lat="48.2353" lon="7.2588">
        <ele>988</ele>
        <time>2015-06-29T09:20:02Z</time>
      </trkpt>
      <trkpt lat="48.23528" lon="7.25888">
        <ele>988</ele>
        <time>2015-06-29T09:20:09Z</time>
      </trkpt>
      <trkpt lat="48.23525" lon="7.25894">
        <ele>989</ele>
        <time>2015-06-29T09:20:13Z</time>
      </trkpt>
      <trkpt lat="48.23526" lon="7.25901">
        <ele>989</ele>
        <time>2015-06-29T09:20:19Z</time>
      </trkpt>
      <trkpt lat="48.23526" lon="7.25909">
        <ele>989</ele>
        <time>2015-06-29T09:20:31Z</time>
      </trkpt>
      <trkpt lat="48.23523" lon="7.25913">
        <ele>989</ele>
        <time>2015-06-29T09:20:34Z</time>
      </trkpt>
      <trkpt lat="48.23523" lon="7.2592">
        <ele>989</ele>
        <time>2015-06-29T09:20:38Z</time>
      </trkpt>
      <trkpt lat="48.23523" lon="7.25927">
        <ele>990</ele>
        <time>2015-06-29T09:20:44Z</time>
      </trkpt>
      <trkpt lat="48.23525" lon="7.25935">
        <ele>991</ele>
        <time>2015-06-29T09:20:48Z</time>
      </trkpt>
      <trkpt lat="48.23524" lon="7.25942">
        <ele>991</ele>
        <time>2015-06-29T09:20:52Z</time>
      </trkpt>
      <trkpt lat="48.23525" lon="7.25952">
        <ele>991</ele>
        <time>2015-06-29T09:20:54Z</time>
      </trkpt>
      <trkpt lat="48.23529" lon="7.25955">
        <ele>991</ele>
        <time>2015-06-29T09:20:57Z</time>
      </trkpt>
      <trkpt lat="48.23527" lon="7.25961">
        <ele>991</ele>
        <time>2015-06-29T09:21:06Z</time>
      </trkpt>
      <trkpt lat="48.23527" lon="7.25973">
        <ele>991</ele>
        <time>2015-06-29T09:21:10Z</time>
      </trkpt>
      <trkpt lat="48.23527" lon="7.25982">
        <ele>991</ele>
        <time>2015-06-29T09:21:12Z</time>
      </trkpt>
      <trkpt lat="48.23527" lon="7.2599">
        <ele>991</ele>
        <time>2015-06-29T09:21:15Z</time>
      </trkpt>
      <trkpt lat="48.23528" lon="7.25997">
        <ele>991</ele>
        <time>2015-06-29T09:21:19Z</time>
      </trkpt>
      <trkpt lat="48.2353" lon="7.26004">
        <ele>991</ele>
        <time>2015-06-29T09:21:25Z</time>
      </trkpt>
      <trkpt lat="48.23533" lon="7.26012">
        <ele>991</ele>
        <time>2015-06-29T09:21:31Z</time>
      </trkpt>
      <trkpt lat="48.2353" lon="7.26018">
        <ele>992</ele>
        <time>2015-06-29T09:21:43Z</time>
      </trkpt>
      <trkpt lat="48.23529" lon="7.26025">
        <ele>993</ele>
        <time>2015-06-29T09:21:53Z</time>
      </trkpt>
      <trkpt lat="48.23532" lon="7.26032">
        <ele>993</ele>
        <time>2015-06-29T09:22:01Z</time>
      </trkpt>
      <trkpt lat="48.23537" lon="7.26034">
        <ele>993</ele>
        <time>2015-06-29T09:22:05Z</time>
      </trkpt>
      <trkpt lat="48.23534" lon="7.26041">
        <ele>993</ele>
        <time>2015-06-29T09:22:09Z</time>
      </trkpt>
      <trkpt lat="48.23533" lon="7.26047">
        <ele>993</ele>
        <time>2015-06-29T09:22:14Z</time>
      </trkpt>
      <trkpt lat="48.23536" lon="7.26057">
        <ele>993</ele>
        <time>2015-06-29T09:22:18Z</time>
      </trkpt>
      <trkpt lat="48.23534" lon="7.26064">
        <ele>994</ele>
        <time>2015-06-29T09:22:24Z</time>
      </trkpt>
      <trkpt lat="48.23537" lon="7.26071">
        <ele>995</ele>
        <time>2015-06-29T09:22:30Z</time>
      </trkpt>
      <trkpt lat="48.23534" lon="7.26078">
        <ele>995</ele>
        <time>2015-06-29T09:22:35Z</time>
      </trkpt>
      <trkpt lat="48.23534" lon="7.26085">
        <ele>995</ele>
        <time>2015-06-29T09:22:40Z</time>
      </trkpt>
      <trkpt lat="48.23534" lon="7.26093">
        <ele>995</ele>
        <time>2015-06-29T09:22:43Z</time>
      </trkpt>
      <trkpt lat="48.23536" lon="7.26099">
        <ele>994</ele>
        <time>2015-06-29T09:22:48Z</time>
      </trkpt>
      <trkpt lat="48.23535" lon="7.26106">
        <ele>994</ele>
        <time>2015-06-29T09:22:53Z</time>
      </trkpt>
      <trkpt lat="48.23533" lon="7.26114">
        <ele>993</ele>
        <time>2015-06-29T09:22:57Z</time>
      </trkpt>
      <trkpt lat="48.23531" lon="7.26121">
        <ele>993</ele>
        <time>2015-06-29T09:23:01Z</time>
      </trkpt>
      <trkpt lat="48.23528" lon="7.26128">
        <ele>992</ele>
        <time>2015-06-29T09:23:08Z</time>
      </trkpt>
      <trkpt lat="48.23531" lon="7.26134">
        <ele>992</ele>
        <time>2015-06-29T09:23:17Z</time>
      </trkpt>
      <trkpt lat="48.23535" lon="7.26139">
        <ele>992</ele>
        <time>2015-06-29T09:23:22Z</time>
      </trkpt>
      <trkpt lat="48.23538" lon="7.26144">
        <ele>990</ele>
        <time>2015-06-29T09:23:36Z</time>
      </trkpt>
      <trkpt lat="48.23537" lon="7.2615">
        <ele>988</ele>
        <time>2015-06-29T09:23:44Z</time>
      </trkpt>
      <trkpt lat="48.23541" lon="7.26156">
        <ele>988</ele>
        <time>2015-06-29T09:23:48Z</time>
      </trkpt>
      <trkpt lat="48.23544" lon="7.26162">
        <ele>987</ele>
        <time>2015-06-29T09:23:52Z</time>
      </trkpt>
      <trkpt lat="48.23548" lon="7.26168">
        <ele>987</ele>
        <time>2015-06-29T09:23:58Z</time>
      </trkpt>
      <trkpt lat="48.23549" lon="7.26174">
        <ele>985</ele>
        <time>2015-06-29T09:24:06Z</time>
      </trkpt>
      <trkpt lat="48.23551" lon="7.26182">
        <ele>985</ele>
        <time>2015-06-29T09:24:10Z</time>
      </trkpt>
      <trkpt lat="48.23552" lon="7.26188">
        <ele>984</ele>
        <time>2015-06-29T09:24:17Z</time>
      </trkpt>
      <trkpt lat="48.23554" lon="7.26195">
        <ele>984</ele>
        <time>2015-06-29T09:24:26Z</time>
      </trkpt>
      <trkpt lat="48.23556" lon="7.26202">
        <ele>984</ele>
        <time>2015-06-29T09:24:28Z</time>
      </trkpt>
      <trkpt lat="48.23557" lon="7.26209">
        <ele>984</ele>
        <time>2015-06-29T09:24:31Z</time>
      </trkpt>
      <trkpt lat="48.23559" lon="7.26215">
        <ele>985</ele>
        <time>2015-06-29T09:24:39Z</time>
      </trkpt>
      <trkpt lat="48.23562" lon="7.2622">
        <ele>985</ele>
        <time>2015-06-29T09:24:48Z</time>
      </trkpt>
      <trkpt lat="48.23564" lon="7.26228">
        <ele>986</ele>
        <time>2015-06-29T09:24:53Z</time>
      </trkpt>
      <trkpt lat="48.23562" lon="7.26234">
        <ele>986</ele>
        <time>2015-06-29T09:24:58Z</time>
      </trkpt>
      <trkpt lat="48.23565" lon="7.26239">
        <ele>986</ele>
        <time>2015-06-29T09:25:04Z</time>
      </trkpt>
      <trkpt lat="48.23566" lon="7.26247">
        <ele>986</ele>
        <time>2015-06-29T09:25:12Z</time>
      </trkpt>
      <trkpt lat="48.23565" lon="7.26254">
        <ele>986</ele>
        <time>2015-06-29T09:25:15Z</time>
      </trkpt>
      <trkpt lat="48.23567" lon="7.26261">
        <ele>985</ele>
        <time>2015-06-29T09:25:19Z</time>
      </trkpt>
      <trkpt lat="48.23569" lon="7.26267">
        <ele>985</ele>
        <time>2015-06-29T09:25:23Z</time>
      </trkpt>
      <trkpt lat="48.2357" lon="7.26275">
        <ele>985</ele>
        <time>2015-06-29T09:25:28Z</time>
      </trkpt>
      <trkpt lat="48.2357" lon="7.26283">
        <ele>984</ele>
        <time>2015-06-29T09:25:36Z</time>
      </trkpt>
      <trkpt lat="48.23571" lon="7.26292">
        <ele>984</ele>
        <time>2015-06-29T09:25:40Z</time>
      </trkpt>
      <trkpt lat="48.2357" lon="7.26299">
        <ele>984</ele>
        <time>2015-06-29T09:25:44Z</time>
      </trkpt>
      <trkpt lat="48.23572" lon="7.26306">
        <ele>984</ele>
        <time>2015-06-29T09:25:48Z</time>
      </trkpt>
      <trkpt lat="48.23576" lon="7.26313">
        <ele>984</ele>
        <time>2015-06-29T09:25:51Z</time>
      </trkpt>
      <trkpt lat="48.23578" lon="7.26319">
        <ele>984</ele>
        <time>2015-06-29T09:25:53Z</time>
      </trkpt>
      <trkpt lat="48.2358" lon="7.26326">
        <ele>984</ele>
        <time>2015-06-29T09:26:01Z</time>
      </trkpt>
      <trkpt lat="48.2358" lon="7.26333">
        <ele>983</ele>
        <time>2015-06-29T09:26:13Z</time>
      </trkpt>
      <trkpt lat="48.23581" lon="7.26341">
        <ele>983</ele>
        <time>2015-06-29T09:26:20Z</time>
      </trkpt>
      <trkpt lat="48.23581" lon="7.26348">
        <ele>983</ele>
        <time>2015-06-29T09:26:25Z</time>
      </trkpt>
      <trkpt lat="48.2358" lon="7.26355">
        <ele>983</ele>
        <time>2015-06-29T09:26:32Z</time>
      </trkpt>
      <trkpt lat="48.23581" lon="7.26363">
        <ele>983</ele>
        <time>2015-06-29T09:26:36Z</time>
      </trkpt>
      <trkpt lat="48.23583" lon="7.2637">
        <ele>984</ele>
        <time>2015-06-29T09:26:41Z</time>
      </trkpt>
      <trkpt lat="48.23586" lon="7.26376">
        <ele>984</ele>
        <time>2015-06-29T09:26:46Z</time>
      </trkpt>
      <trkpt lat="48.23588" lon="7.26384">
        <ele>985</ele>
        <time>2015-06-29T09:26:52Z</time>
      </trkpt>
      <trkpt lat="48.23593" lon="7.26393">
        <ele>985</ele>
        <time>2015-06-29T09:26:56Z</time>
      </trkpt>
      <trkpt lat="48.23596" lon="7.26399">
        <ele>985</ele>
        <time>2015-06-29T09:26:59Z</time>
      </trkpt>
      <trkpt lat="48.23599" lon="7.26405">
        <ele>985</ele>
        <time>2015-06-29T09:27:08Z</time>
      </trkpt>
      <trkpt lat="48.23603" lon="7.26409">
        <ele>985</ele>
        <time>2015-06-29T09:27:13Z</time>
      </trkpt>
      <trkpt lat="48.23605" lon="7.26415">
        <ele>984</ele>
        <time>2015-06-29T09:27:27Z</time>
      </trkpt>
      <trkpt lat="48.23607" lon="7.26421">
        <ele>983</ele>
        <time>2015-06-29T09:27:34Z</time>
      </trkpt>
      <trkpt lat="48.23613" lon="7.26425">
        <ele>983</ele>
        <time>2015-06-29T09:27:38Z</time>
      </trkpt>
      <trkpt lat="48.23617" lon="7.26429">
        <ele>982</ele>
        <time>2015-06-29T09:27:43Z</time>
      </trkpt>
      <trkpt lat="48.23619" lon="7.26437">
        <ele>981</ele>
        <time>2015-06-29T09:27:53Z</time>
      </trkpt>
      <trkpt lat="48.23624" lon="7.26439">
        <ele>980</ele>
        <time>2015-06-29T09:28:01Z</time>
      </trkpt>
      <trkpt lat="48.23626" lon="7.26446">
        <ele>980</ele>
        <time>2015-06-29T09:28:08Z</time>
      </trkpt>
      <trkpt lat="48.23626" lon="7.26454">
        <ele>979</ele>
        <time>2015-06-29T09:28:15Z</time>
      </trkpt>
      <trkpt lat="48.23626" lon="7.26461">
        <ele>978</ele>
        <time>2015-06-29T09:28:22Z</time>
      </trkpt>
      <trkpt lat="48.2363" lon="7.26461">
        <ele>978</ele>
        <time>2015-06-29T09:28:31Z</time>
      </trkpt>
      <trkpt lat="48.23631" lon="7.26469">
        <ele>978</ele>
        <time>2015-06-29T09:28:35Z</time>
      </trkpt>
      <trkpt lat="48.23629" lon="7.26475">
        <ele>977</ele>
        <time>2015-06-29T09:28:40Z</time>
      </trkpt>
      <trkpt lat="48.23631" lon="7.26482">
        <ele>975</ele>
        <time>2015-06-29T09:28:48Z</time>
      </trkpt>
      <trkpt lat="48.23633" lon="7.26489">
        <ele>974</ele>
        <time>2015-06-29T09:28:55Z</time>
      </trkpt>
      <trkpt lat="48.23634" lon="7.26496">
        <ele>973</ele>
        <time>2015-06-29T09:28:59Z</time>
      </trkpt>
      <trkpt lat="48.23636" lon="7.26503">
        <ele>973</ele>
        <time>2015-06-29T09:29:03Z</time>
      </trkpt>
      <trkpt lat="48.23639" lon="7.26509">
        <ele>972</ele>
        <time>2015-06-29T09:29:09Z</time>
      </trkpt>
      <trkpt lat="48.23643" lon="7.26513">
        <ele>971</ele>
        <time>2015-06-29T09:29:10Z</time>
      </trkpt>
      <trkpt lat="48.23647" lon="7.26517">
        <ele>971</ele>
        <time>2015-06-29T09:29:12Z</time>
      </trkpt>
      <trkpt lat="48.23652" lon="7.2652">
        <ele>971</ele>
        <time>2015-06-29T09:29:14Z</time>
      </trkpt>
      <trkpt lat="48.23656" lon="7.26523">
        <ele>971</ele>
        <time>2015-06-29T09:29:16Z</time>
      </trkpt>
      <trkpt lat="48.23658" lon="7.2653">
        <ele>970</ele>
        <time>2015-06-29T09:29:22Z</time>
      </trkpt>
      <trkpt lat="48.23661" lon="7.26536">
        <ele>969</ele>
        <time>2015-06-29T09:29:29Z</time>
      </trkpt>
      <trkpt lat="48.23663" lon="7.26543">
        <ele>967</ele>
        <time>2015-06-29T09:29:39Z</time>
      </trkpt>
      <trkpt lat="48.23666" lon="7.26549">
        <ele>964</ele>
        <time>2015-06-29T09:29:51Z</time>
      </trkpt>
      <trkpt lat="48.23667" lon="7.26559">
        <ele>963</ele>
        <time>2015-06-29T09:29:57Z</time>
      </trkpt>
      <trkpt lat="48.23668" lon="7.26566">
        <ele>962</ele>
        <time>2015-06-29T09:30:01Z</time>
      </trkpt>
      <trkpt lat="48.23668" lon="7.26572">
        <ele>961</ele>
        <time>2015-06-29T09:30:08Z</time>
      </trkpt>
      <trkpt lat="48.23669" lon="7.26579">
        <ele>961</ele>
        <time>2015-06-29T09:30:13Z</time>
      </trkpt>
      <trkpt lat="48.2367" lon="7.26586">
        <ele>961</ele>
        <time>2015-06-29T09:30:21Z</time>
      </trkpt>
      <trkpt lat="48.23669" lon="7.26594">
        <ele>960</ele>
        <time>2015-06-29T09:30:31Z</time>
      </trkpt>
      <trkpt lat="48.23672" lon="7.26601">
        <ele>960</ele>
        <time>2015-06-29T09:30:35Z</time>
      </trkpt>
      <trkpt lat="48.23673" lon="7.26607">
        <ele>960</ele>
        <time>2015-06-29T09:30:41Z</time>
      </trkpt>
      <trkpt lat="48.23674" lon="7.26613">
        <ele>960</ele>
        <time>2015-06-29T09:30:47Z</time>
      </trkpt>
      <trkpt lat="48.23675" lon="7.26621">
        <ele>960</ele>
        <time>2015-06-29T09:30:51Z</time>
      </trkpt>
      <trkpt lat="48.23674" lon="7.26628">
        <ele>961</ele>
        <time>2015-06-29T09:30:56Z</time>
      </trkpt>
      <trkpt lat="48.23673" lon="7.26634">
        <ele>960</ele>
        <time>2015-06-29T09:31:01Z</time>
      </trkpt>
      <trkpt lat="48.2367" lon="7.2664">
        <ele>960</ele>
        <time>2015-06-29T09:31:07Z</time>
      </trkpt>
      <trkpt lat="48.23665" lon="7.26646">
        <ele>960</ele>
        <time>2015-06-29T09:31:15Z</time>
      </trkpt>
      <trkpt lat="48.23665" lon="7.2666">
        <ele>959</ele>
        <time>2015-06-29T09:31:19Z</time>
      </trkpt>
      <trkpt lat="48.23663" lon="7.26658">
        <ele>959</ele>
        <time>2015-06-29T09:31:37Z</time>
      </trkpt>
      <trkpt lat="48.23661" lon="7.26657">
        <ele>959</ele>
        <time>2015-06-29T09:32:07Z</time>
      </trkpt>
      <trkpt lat="48.23661" lon="7.26657">
        <ele>958</ele>
        <time>2015-06-29T09:32:37Z</time>
      </trkpt>
      <trkpt lat="48.23661" lon="7.26657">
        <ele>958</ele>
        <time>2015-06-29T09:33:07Z</time>
      </trkpt>
      <trkpt lat="48.23661" lon="7.26657">
        <ele>958</ele>
        <time>2015-06-29T09:33:37Z</time>
      </trkpt>
      <trkpt lat="48.23661" lon="7.26657">
        <ele>959</ele>
        <time>2015-06-29T09:34:07Z</time>
      </trkpt>
      <trkpt lat="48.23661" lon="7.26656">
        <ele>959</ele>
        <time>2015-06-29T09:34:14Z</time>
      </trkpt>
      <trkpt lat="48.23657" lon="7.2666">
        <ele>959</ele>
        <time>2015-06-29T09:34:33Z</time>
      </trkpt>
      <trkpt lat="48.23657" lon="7.26655">
        <ele>959</ele>
        <time>2015-06-29T09:34:52Z</time>
      </trkpt>
      <trkpt lat="48.23657" lon="7.26653">
        <ele>959</ele>
        <time>2015-06-29T09:34:57Z</time>
      </trkpt>
      <trkpt lat="48.23661" lon="7.26652">
        <ele>959</ele>
        <time>2015-06-29T09:35:14Z</time>
      </trkpt>
      <trkpt lat="48.23659" lon="7.26658">
        <ele>959</ele>
        <time>2015-06-29T09:35:30Z</time>
      </trkpt>
      <trkpt lat="48.23658" lon="7.26662">
        <ele>959</ele>
        <time>2015-06-29T09:35:52Z</time>
      </trkpt>
      <trkpt lat="48.23658" lon="7.26662">
        <ele>960</ele>
        <time>2015-06-29T09:36:22Z</time>
      </trkpt>
      <trkpt lat="48.23658" lon="7.26662">
        <ele>961</ele>
        <time>2015-06-29T09:36:52Z</time>
      </trkpt>
      <trkpt lat="48.23658" lon="7.26662">
        <ele>962</ele>
        <time>2015-06-29T09:37:23Z</time>
      </trkpt>
      <trkpt lat="48.23663" lon="7.26662">
        <ele>962</ele>
        <time>2015-06-29T09:37:32Z</time>
      </trkpt>
      <trkpt lat="48.23666" lon="7.2666">
        <ele>962</ele>
        <time>2015-06-29T09:37:53Z</time>
      </trkpt>
      <trkpt lat="48.23665" lon="7.26669">
        <ele>962</ele>
        <time>2015-06-29T09:38:05Z</time>
      </trkpt>
      <trkpt lat="48.23668" lon="7.26676">
        <ele>962</ele>
        <time>2015-06-29T09:38:09Z</time>
      </trkpt>
      <trkpt lat="48.23671" lon="7.26681">
        <ele>961</ele>
        <time>2015-06-29T09:38:13Z</time>
      </trkpt>
      <trkpt lat="48.23673" lon="7.26688">
        <ele>962</ele>
        <time>2015-06-29T09:38:23Z</time>
      </trkpt>
      <trkpt lat="48.23677" lon="7.2669">
        <ele>962</ele>
        <time>2015-06-29T09:38:31Z</time>
      </trkpt>
      <trkpt lat="48.23679" lon="7.26697">
        <ele>961</ele>
        <time>2015-06-29T09:38:42Z</time>
      </trkpt>
      <trkpt lat="48.23677" lon="7.26704">
        <ele>960</ele>
        <time>2015-06-29T09:38:49Z</time>
      </trkpt>
      <trkpt lat="48.23677" lon="7.26712">
        <ele>959</ele>
        <time>2015-06-29T09:38:56Z</time>
      </trkpt>
      <trkpt lat="48.23676" lon="7.26719">
        <ele>958</ele>
        <time>2015-06-29T09:39:04Z</time>
      </trkpt>
      <trkpt lat="48.23676" lon="7.26726">
        <ele>958</ele>
        <time>2015-06-29T09:39:15Z</time>
      </trkpt>
      <trkpt lat="48.23679" lon="7.26733">
        <ele>958</ele>
        <time>2015-06-29T09:39:19Z</time>
      </trkpt>
      <trkpt lat="48.23678" lon="7.2674">
        <ele>957</ele>
        <time>2015-06-29T09:39:22Z</time>
      </trkpt>
      <trkpt lat="48.23675" lon="7.26747">
        <ele>956</ele>
        <time>2015-06-29T09:39:28Z</time>
      </trkpt>
      <trkpt lat="48.23674" lon="7.26754">
        <ele>956</ele>
        <time>2015-06-29T09:39:34Z</time>
      </trkpt>
      <trkpt lat="48.23672" lon="7.26764">
        <ele>955</ele>
        <time>2015-06-29T09:39:36Z</time>
      </trkpt>
      <trkpt lat="48.23669" lon="7.26772">
        <ele>955</ele>
        <time>2015-06-29T09:39:40Z</time>
      </trkpt>
      <trkpt lat="48.23667" lon="7.26779">
        <ele>954</ele>
        <time>2015-06-29T09:39:43Z</time>
      </trkpt>
      <trkpt lat="48.23667" lon="7.26786">
        <ele>954</ele>
        <time>2015-06-29T09:39:50Z</time>
      </trkpt>
      <trkpt lat="48.23668" lon="7.26793">
        <ele>954</ele>
        <time>2015-06-29T09:39:59Z</time>
      </trkpt>
      <trkpt lat="48.23665" lon="7.268">
        <ele>954</ele>
        <time>2015-06-29T09:40:05Z</time>
      </trkpt>
      <trkpt lat="48.23663" lon="7.26808">
        <ele>955</ele>
        <time>2015-06-29T09:40:16Z</time>
      </trkpt>
      <trkpt lat="48.23661" lon="7.26816">
        <ele>955</ele>
        <time>2015-06-29T09:40:18Z</time>
      </trkpt>
      <trkpt lat="48.23662" lon="7.26823">
        <ele>956</ele>
        <time>2015-06-29T09:40:23Z</time>
      </trkpt>
      <trkpt lat="48.23665" lon="7.2683">
        <ele>956</ele>
        <time>2015-06-29T09:40:26Z</time>
      </trkpt>
      <trkpt lat="48.23668" lon="7.26837">
        <ele>957</ele>
        <time>2015-06-29T09:40:29Z</time>
      </trkpt>
      <trkpt lat="48.23671" lon="7.26843">
        <ele>957</ele>
        <time>2015-06-29T09:40:32Z</time>
      </trkpt>
      <trkpt lat="48.23675" lon="7.26847">
        <ele>957</ele>
        <time>2015-06-29T09:40:35Z</time>
      </trkpt>
      <trkpt lat="48.23679" lon="7.26848">
        <ele>957</ele>
        <time>2015-06-29T09:40:39Z</time>
      </trkpt>
      <trkpt lat="48.23684" lon="7.26853">
        <ele>958</ele>
        <time>2015-06-29T09:40:47Z</time>
      </trkpt>
      <trkpt lat="48.23689" lon="7.26858">
        <ele>958</ele>
        <time>2015-06-29T09:40:51Z</time>
      </trkpt>
      <trkpt lat="48.23694" lon="7.2686">
        <ele>958</ele>
        <time>2015-06-29T09:40:55Z</time>
      </trkpt>
      <trkpt lat="48.23698" lon="7.26867">
        <ele>958</ele>
        <time>2015-06-29T09:41:02Z</time>
      </trkpt>
      <trkpt lat="48.23701" lon="7.26872">
        <ele>958</ele>
        <time>2015-06-29T09:41:03Z</time>
      </trkpt>
      <trkpt lat="48.23705" lon="7.26878">
        <ele>958</ele>
        <time>2015-06-29T09:41:05Z</time>
      </trkpt>
      <trkpt lat="48.23707" lon="7.26885">
        <ele>958</ele>
        <time>2015-06-29T09:41:10Z</time>
      </trkpt>
      <trkpt lat="48.23708" lon="7.26892">
        <ele>958</ele>
        <time>2015-06-29T09:41:14Z</time>
      </trkpt>
      <trkpt lat="48.23711" lon="7.26899">
        <ele>958</ele>
        <time>2015-06-29T09:41:18Z</time>
      </trkpt>
      <trkpt lat="48.23715" lon="7.26902">
        <ele>959</ele>
        <time>2015-06-29T09:41:22Z</time>
      </trkpt>
      <trkpt lat="48.23719" lon="7.26906">
        <ele>959</ele>
        <time>2015-06-29T09:41:27Z</time>
      </trkpt>
      <trkpt lat="48.23723" lon="7.2691">
        <ele>959</ele>
        <time>2015-06-29T09:41:33Z</time>
      </trkpt>
      <trkpt lat="48.23724" lon="7.26917">
        <ele>959</ele>
        <time>2015-06-29T09:41:41Z</time>
      </trkpt>
      <trkpt lat="48.23726" lon="7.26924">
        <ele>959</ele>
        <time>2015-06-29T09:41:47Z</time>
      </trkpt>
      <trkpt lat="48.2373" lon="7.2693">
        <ele>959</ele>
        <time>2015-06-29T09:41:53Z</time>
      </trkpt>
      <trkpt lat="48.23733" lon="7.26936">
        <ele>960</ele>
        <time>2015-06-29T09:41:55Z</time>
      </trkpt>
      <trkpt lat="48.23736" lon="7.26942">
        <ele>960</ele>
        <time>2015-06-29T09:42:00Z</time>
      </trkpt>
      <trkpt lat="48.23739" lon="7.26949">
        <ele>960</ele>
        <time>2015-06-29T09:42:05Z</time>
      </trkpt>
      <trkpt lat="48.23742" lon="7.26954">
        <ele>961</ele>
        <time>2015-06-29T09:42:11Z</time>
      </trkpt>
      <trkpt lat="48.23746" lon="7.26959">
        <ele>961</ele>
        <time>2015-06-29T09:42:30Z</time>
      </trkpt>
      <trkpt lat="48.2375" lon="7.26959">
        <ele>961</ele>
        <time>2015-06-29T09:42:41Z</time>
      </trkpt>
      <trkpt lat="48.23753" lon="7.26965">
        <ele>960</ele>
        <time>2015-06-29T09:42:47Z</time>
      </trkpt>
      <trkpt lat="48.23755" lon="7.26973">
        <ele>960</ele>
        <time>2015-06-29T09:42:53Z</time>
      </trkpt>
      <trkpt lat="48.23758" lon="7.26979">
        <ele>960</ele>
        <time>2015-06-29T09:43:04Z</time>
      </trkpt>
      <trkpt lat="48.23762" lon="7.26982">
        <ele>959</ele>
        <time>2015-06-29T09:43:16Z</time>
      </trkpt>
      <trkpt lat="48.23759" lon="7.26988">
        <ele>959</ele>
        <time>2015-06-29T09:43:31Z</time>
      </trkpt>
      <trkpt lat="48.23759" lon="7.26991">
        <ele>958</ele>
        <time>2015-06-29T09:43:53Z</time>
      </trkpt>
      <trkpt lat="48.23764" lon="7.26989">
        <ele>956</ele>
        <time>2015-06-29T09:44:36Z</time>
      </trkpt>
      <trkpt lat="48.23763" lon="7.26989">
        <ele>956</ele>
        <time>2015-06-29T09:44:53Z</time>
      </trkpt>
      <trkpt lat="48.23763" lon="7.2699">
        <ele>957</ele>
        <time>2015-06-29T09:45:23Z</time>
      </trkpt>
      <trkpt lat="48.2376" lon="7.26989">
        <ele>956</ele>
        <time>2015-06-29T09:45:53Z</time>
      </trkpt>
      <trkpt lat="48.2376" lon="7.26989">
        <ele>956</ele>
        <time>2015-06-29T09:46:23Z</time>
      </trkpt>
      <trkpt lat="48.23759" lon="7.26988">
        <ele>956</ele>
        <time>2015-06-29T09:46:35Z</time>
      </trkpt>
      <trkpt lat="48.23762" lon="7.26987">
        <ele>956</ele>
        <time>2015-06-29T09:46:53Z</time>
      </trkpt>
      <trkpt lat="48.23764" lon="7.26987">
        <ele>955</ele>
        <time>2015-06-29T09:47:02Z</time>
      </trkpt>
      <trkpt lat="48.23768" lon="7.2699">
        <ele>954</ele>
        <time>2015-06-29T09:47:13Z</time>
      </trkpt>
      <trkpt lat="48.23772" lon="7.26987">
        <ele>953</ele>
        <time>2015-06-29T09:47:25Z</time>
      </trkpt>
      <trkpt lat="48.23777" lon="7.26984">
        <ele>953</ele>
        <time>2015-06-29T09:47:33Z</time>
      </trkpt>
      <trkpt lat="48.23776" lon="7.26987">
        <ele>951</ele>
        <time>2015-06-29T09:47:53Z</time>
      </trkpt>
      <trkpt lat="48.23775" lon="7.26988">
        <ele>951</ele>
        <time>2015-06-29T09:48:08Z</time>
      </trkpt>
      <trkpt lat="48.23774" lon="7.26981">
        <ele>951</ele>
        <time>2015-06-29T09:48:23Z</time>
      </trkpt>
      <trkpt lat="48.23775" lon="7.26984">
        <ele>950</ele>
        <time>2015-06-29T09:48:38Z</time>
      </trkpt>
      <trkpt lat="48.23775" lon="7.26983">
        <ele>951</ele>
        <time>2015-06-29T09:48:54Z</time>
      </trkpt>
      <trkpt lat="48.23777" lon="7.26984">
        <ele>950</ele>
        <time>2015-06-29T09:49:24Z</time>
      </trkpt>
      <trkpt lat="48.23777" lon="7.26977">
        <ele>951</ele>
        <time>2015-06-29T09:49:42Z</time>
      </trkpt>
    </trkseg>
  </trk>
</gpx>